Time,TemperatureF,DewpointF,PressureIn,WindDirection,WindDirectionDegrees,WindSpeedMPH,WindSpeedGustMPH,Humidity,HourlyPrecipIn,Conditions,Clouds,dailyrainin,SoftwareType,DateUTC
2013-03-05 00:00:00,45.9,30.2,29.91,South,180,1.3,2.5,54,0.00,,,0.00,WUHU216HW,2013-03-05 05:00:00,
2013-03-05 00:05:00,46.1,30.2,29.91,SSE,158,1.7,2.9,54,0.00,,,0.00,WUHU216HW,2013-03-05 05:05:00,
2013-03-05 00:06:00,46.3,30.4,29.91,SSE,147,1.5,2.9,54,0.00,,,0.00,WUHU216HW,2013-03-05 05:06:00,
2013-03-05 00:10:00,46.4,30.6,29.90,SSE,158,1.1,2.9,54,0.00,,,0.00,WUHU216HW,2013-03-05 05:10:00,
2013-03-05 00:11:00,46.4,30.6,29.90,SSE,158,1.1,2.9,54,0.00,,,0.00,WUHU216HW,2013-03-05 05:11:00,
2013-03-05 00:12:00,46.4,30.6,29.91,SSE,158,1.3,1.8,54,0.00,,,0.00,WUHU216HW,2013-03-05 05:12:00,
2013-03-05 00:16:00,46.8,31.0,29.90,SE,135,2.2,2.5,54,0.00,,,0.00,WUHU216HW,2013-03-05 05:16:00,
2013-03-05 00:17:00,46.8,31.0,29.90,SE,135,2.2,2.5,54,0.00,,,0.00,WUHU216HW,2013-03-05 05:17:00,
2013-03-05 00:18:00,46.8,31.0,29.90,SE,135,2.3,2.5,54,0.00,,,0.00,WUHU216HW,2013-03-05 05:18:00,
2013-03-05 00:22:00,47.0,31.2,29.90,SSE,158,2.3,3.1,54,0.00,,,0.00,WUHU216HW,2013-03-05 05:22:00,
2013-03-05 00:24:00,47.0,31.2,29.90,SSE,158,2.8,3.8,54,0.00,,,0.00,WUHU216HW,2013-03-05 05:24:00,
2013-03-05 00:27:00,47.2,31.3,29.89,South,180,2.2,3.8,54,0.00,,,0.00,WUHU216HW,2013-03-05 05:27:00,
2013-03-05 00:28:00,47.2,31.3,29.89,South,180,2.2,3.8,54,0.00,,,0.00,WUHU216HW,2013-03-05 05:28:00,
2013-03-05 00:29:00,47.2,31.3,29.89,SSE,161,1.9,3.8,54,0.00,,,0.00,WUHU216HW,2013-03-05 05:29:00,
2013-03-05 00:32:00,47.3,31.4,29.89,SE,135,1.6,3.8,54,0.00,,,0.00,WUHU216HW,2013-03-05 05:32:00,
2013-03-05 00:33:00,47.5,31.6,29.89,SSE,158,3.8,3.8,54,0.00,,,0.00,WUHU216HW,2013-03-05 05:33:00,
2013-03-05 00:35:00,47.5,31.6,29.89,SSE,158,2.9,3.8,54,0.00,,,0.00,WUHU216HW,2013-03-05 05:35:00,
2013-03-05 00:38:00,47.7,31.8,29.89,ESE,113,3.4,4.0,54,0.00,,,0.00,WUHU216HW,2013-03-05 05:38:00,
2013-03-05 00:40:00,47.9,32.0,29.88,SE,144,1.5,4.0,54,0.00,,,0.00,WUHU216HW,2013-03-05 05:40:00,
2013-03-05 00:41:00,47.9,32.0,29.88,SSE,158,2.5,4.0,54,0.00,,,0.00,WUHU216HW,2013-03-05 05:41:00,
2013-03-05 00:43:00,47.9,31.5,29.88,SE,135,1.8,4.0,53,0.00,,,0.00,WUHU216HW,2013-03-05 05:43:00,
2013-03-05 00:44:00,47.9,31.5,29.88,SE,135,1.6,4.0,53,0.00,,,0.00,WUHU216HW,2013-03-05 05:44:00,
2013-03-05 00:46:00,48.1,31.7,29.87,SSE,158,4.5,4.5,53,0.00,,,0.00,WUHU216HW,2013-03-05 05:46:00,
2013-03-05 00:47:00,48.1,31.7,29.87,SSE,158,4.5,4.5,53,0.00,,,0.00,WUHU216HW,2013-03-05 05:47:00,
2013-03-05 00:49:00,48.2,31.9,29.87,SE,135,5.4,5.4,53,0.00,,,0.00,WUHU216HW,2013-03-05 05:49:00,
2013-03-05 00:50:00,48.2,31.9,29.87,SE,135,5.4,5.4,53,0.00,,,0.00,WUHU216HW,2013-03-05 05:50:00,
2013-03-05 00:52:00,48.4,32.1,29.87,SE,135,3.1,5.4,53,0.00,,,0.00,WUHU216HW,2013-03-05 05:52:00,
2013-03-05 00:53:00,48.4,32.1,29.87,SE,135,4.7,5.4,53,0.00,,,0.00,WUHU216HW,2013-03-05 05:53:00,
2013-03-05 00:54:00,48.6,32.1,29.87,SE,144,3.9,5.4,53,0.00,,,0.00,WUHU216HW,2013-03-05 05:54:00,
2013-03-05 00:56:00,48.6,32.1,29.87,SE,145,2.2,5.4,53,0.00,,,0.00,WUHU216HW,2013-03-05 05:56:00,
2013-03-05 00:57:00,48.6,32.1,29.87,South,180,3.1,5.4,53,0.00,,,0.00,WUHU216HW,2013-03-05 05:57:00,
2013-03-05 00:58:00,48.6,32.1,29.87,SE,135,5.1,5.4,53,0.00,,,0.00,WUHU216HW,2013-03-05 05:58:00,
2013-03-05 01:00:00,48.8,32.3,29.87,SE,140,4.2,5.1,53,0.00,,,0.00,WUHU216HW,2013-03-05 06:00:00,
2013-03-05 01:01:00,48.8,32.3,29.87,SSE,147,3.4,5.1,53,0.00,,,0.00,WUHU216HW,2013-03-05 06:01:00,
2013-03-05 01:03:00,48.8,31.9,29.87,SE,135,5.4,5.4,52,0.00,,,0.00,WUHU216HW,2013-03-05 06:03:00,
2013-03-05 01:06:00,49.0,32.0,29.87,SSE,158,4.3,5.4,52,0.00,,,0.00,WUHU216HW,2013-03-05 06:06:00,
2013-03-05 01:08:00,49.1,32.2,29.87,SE,135,4.5,5.4,52,0.00,,,0.00,WUHU216HW,2013-03-05 06:08:00,
2013-03-05 01:10:00,49.3,32.4,29.87,SE,135,3.1,5.4,52,0.00,,,0.00,WUHU216HW,2013-03-05 06:10:00,
2013-03-05 01:11:00,49.3,32.4,29.87,SSE,158,3.4,5.4,52,0.00,,,0.00,WUHU216HW,2013-03-05 06:11:00,
2013-03-05 01:12:00,49.3,32.4,29.87,SE,135,3.8,5.4,52,0.00,,,0.00,WUHU216HW,2013-03-05 06:12:00,
2013-03-05 01:15:00,49.3,32.4,29.86,South,171,2.2,4.5,52,0.00,,,0.00,WUHU216HW,2013-03-05 06:15:00,
2013-03-05 01:16:00,49.3,32.4,29.86,SSE,158,2.2,4.5,52,0.00,,,0.00,WUHU216HW,2013-03-05 06:16:00,
2013-03-05 01:17:00,49.3,32.4,29.86,SSE,158,3.6,4.5,52,0.00,,,0.00,WUHU216HW,2013-03-05 06:17:00,
2013-03-05 01:19:00,49.1,32.2,29.86,SE,135,3.8,3.8,52,0.00,,,0.00,WUHU216HW,2013-03-05 06:19:00,
2013-03-05 01:20:00,49.1,32.2,29.86,SSE,158,4.0,4.0,52,0.00,,,0.00,WUHU216HW,2013-03-05 06:20:00,
2013-03-05 01:21:00,49.1,32.2,29.86,SSE,168,3.7,4.0,52,0.00,,,0.00,WUHU216HW,2013-03-05 06:21:00,
2013-03-05 01:24:00,49.1,32.2,29.86,South,179,1.7,4.0,52,0.00,,,0.00,WUHU216HW,2013-03-05 06:24:00,
2013-03-05 01:26:00,49.1,32.2,29.87,SSW,203,1.8,4.0,52,0.00,,,0.00,WUHU216HW,2013-03-05 06:26:00,
2013-03-05 01:29:00,49.1,32.2,29.87,SSW,193,1.8,4.0,52,0.00,,,0.00,WUHU216HW,2013-03-05 06:29:00,
2013-03-05 01:30:00,49.1,32.2,29.87,South,180,3.6,4.0,52,0.00,,,0.00,WUHU216HW,2013-03-05 06:30:00,
2013-03-05 01:31:00,49.0,32.0,29.87,South,180,2.7,4.0,52,0.00,,,0.00,WUHU216HW,2013-03-05 06:31:00,
2013-03-05 01:32:00,49.1,32.2,29.86,South,180,1.3,3.6,52,0.00,,,0.00,WUHU216HW,2013-03-05 06:32:00,
2013-03-05 01:35:00,49.0,32.0,29.87,South,180,2.0,3.6,52,0.00,,,0.00,WUHU216HW,2013-03-05 06:35:00,
2013-03-05 01:36:00,49.0,32.0,29.87,South,180,1.9,3.6,52,0.00,,,0.00,WUHU216HW,2013-03-05 06:36:00,
2013-03-05 01:37:00,49.0,32.5,29.87,South,180,1.8,3.6,53,0.00,,,0.00,WUHU216HW,2013-03-05 06:37:00,
2013-03-05 01:38:00,49.0,32.5,29.87,South,180,1.8,3.6,53,0.00,,,0.00,WUHU216HW,2013-03-05 06:38:00,
2013-03-05 01:40:00,49.0,32.5,29.86,SSE,166,2.9,3.6,53,0.00,,,0.00,WUHU216HW,2013-03-05 06:40:00,
2013-03-05 01:41:00,49.0,32.5,29.87,South,171,1.9,3.6,53,0.00,,,0.00,WUHU216HW,2013-03-05 06:41:00,
2013-03-05 01:42:00,48.8,32.3,29.86,SSE,168,1.5,3.6,53,0.00,,,0.00,WUHU216HW,2013-03-05 06:42:00,
2013-03-05 01:43:00,48.8,32.3,29.86,South,180,1.8,3.6,53,0.00,,,0.00,WUHU216HW,2013-03-05 06:43:00,
2013-03-05 01:45:00,48.8,32.3,29.86,SSE,158,2.5,3.6,53,0.00,,,0.00,WUHU216HW,2013-03-05 06:45:00,
2013-03-05 01:47:00,48.8,32.3,29.86,SSW,203,4.0,4.0,53,0.00,,,0.00,WUHU216HW,2013-03-05 06:47:00,
2013-03-05 01:48:00,48.8,32.3,29.86,SSW,196,2.9,4.0,53,0.00,,,0.00,WUHU216HW,2013-03-05 06:48:00,
2013-03-05 01:49:00,48.8,32.3,29.86,SSE,158,2.5,4.0,53,0.00,,,0.00,WUHU216HW,2013-03-05 06:49:00,
2013-03-05 01:51:00,48.6,32.1,29.86,SSE,158,2.5,4.0,53,0.00,,,0.00,WUHU216HW,2013-03-05 06:51:00,
2013-03-05 01:53:00,48.8,32.3,29.86,SE,135,4.0,4.0,53,0.00,,,0.00,WUHU216HW,2013-03-05 06:53:00,
2013-03-05 01:54:00,48.6,32.1,29.86,SE,140,2.7,4.0,53,0.00,,,0.00,WUHU216HW,2013-03-05 06:54:00,
2013-03-05 01:57:00,48.6,32.1,29.86,SE,145,2.2,4.0,53,0.00,,,0.00,WUHU216HW,2013-03-05 06:57:00,
2013-03-05 01:59:00,48.8,32.3,29.86,SW,225,2.9,4.0,53,0.00,,,0.00,WUHU216HW,2013-03-05 06:59:00,
2013-03-05 02:00:00,48.8,32.3,29.86,SSW,211,1.9,4.0,53,0.00,,,0.00,WUHU216HW,2013-03-05 07:00:00,
2013-03-05 02:03:00,48.6,32.1,29.86,South,180,2.7,4.0,53,0.00,,,0.00,WUHU216HW,2013-03-05 07:03:00,
2013-03-05 02:04:00,48.6,32.1,29.86,SSE,162,2.3,3.1,53,0.00,,,0.00,WUHU216HW,2013-03-05 07:04:00,
2013-03-05 02:05:00,48.6,32.7,29.86,SSE,152,1.5,3.1,54,0.00,,,0.00,WUHU216HW,2013-03-05 07:05:00,
2013-03-05 02:08:00,48.6,32.7,29.85,SSE,159,3.3,4.0,54,0.00,,,0.00,WUHU216HW,2013-03-05 07:08:00,
2013-03-05 02:09:00,48.6,32.7,29.85,SSE,158,4.0,4.0,54,0.00,,,0.00,WUHU216HW,2013-03-05 07:09:00,
2013-03-05 02:10:00,48.6,32.7,29.85,SE,135,4.0,4.0,54,0.00,,,0.00,WUHU216HW,2013-03-05 07:10:00,
2013-03-05 02:11:00,48.6,32.7,29.85,SE,146,3.8,4.0,54,0.00,,,0.00,WUHU216HW,2013-03-05 07:11:00,
2013-03-05 02:13:00,48.6,32.7,29.85,SSW,203,4.3,4.3,54,0.00,,,0.00,WUHU216HW,2013-03-05 07:13:00,
2013-03-05 02:15:00,48.6,32.7,29.85,SSW,203,3.1,4.3,54,0.00,,,0.00,WUHU216HW,2013-03-05 07:15:00,
2013-03-05 02:16:00,48.6,32.7,29.85,SSW,194,2.5,4.3,54,0.00,,,0.00,WUHU216HW,2013-03-05 07:16:00,
2013-03-05 02:18:00,48.6,32.7,29.85,South,180,2.6,4.3,54,0.00,,,0.00,WUHU216HW,2013-03-05 07:18:00,
2013-03-05 02:19:00,48.6,32.7,29.85,SSE,163,1.5,4.3,54,0.00,,,0.00,WUHU216HW,2013-03-05 07:19:00,
2013-03-05 02:21:00,48.8,32.9,29.85,SSE,158,1.6,4.3,54,0.00,,,0.00,WUHU216HW,2013-03-05 07:21:00,
2013-03-05 02:23:00,48.6,32.7,29.85,South,183,2.0,3.4,54,0.00,,,0.00,WUHU216HW,2013-03-05 07:23:00,
2013-03-05 02:24:00,48.6,32.7,29.85,South,190,1.4,3.4,54,0.00,,,0.00,WUHU216HW,2013-03-05 07:24:00,
2013-03-05 02:26:00,48.6,32.7,29.86,SW,217,2.7,3.4,54,0.00,,,0.00,WUHU216HW,2013-03-05 07:26:00,
2013-03-05 02:27:00,48.6,32.7,29.85,SSW,203,1.1,3.4,54,0.00,,,0.00,WUHU216HW,2013-03-05 07:27:00,
2013-03-05 02:28:00,48.6,32.7,29.85,SE,135,1.1,3.4,54,0.00,,,0.00,WUHU216HW,2013-03-05 07:28:00,
2013-03-05 02:29:00,48.6,32.7,29.85,SSE,158,1.8,3.4,54,0.00,,,0.00,WUHU216HW,2013-03-05 07:29:00,
2013-03-05 02:32:00,48.6,33.1,29.85,SSE,158,2.5,3.4,55,0.00,,,0.00,WUHU216HW,2013-03-05 07:32:00,
2013-03-05 02:33:00,48.6,33.1,29.85,South,171,1.6,3.4,55,0.00,,,0.00,WUHU216HW,2013-03-05 07:33:00,
2013-03-05 02:34:00,48.6,33.1,29.85,WSW,248,0.7,3.4,55,0.00,,,0.00,WUHU216HW,2013-03-05 07:34:00,
2013-03-05 02:35:00,48.6,33.1,29.85,WSW,248,0.7,3.4,55,0.00,,,0.00,WUHU216HW,2013-03-05 07:35:00,
2013-03-05 02:39:00,48.6,33.1,29.85,South,180,2.0,3.6,55,0.00,,,0.00,WUHU216HW,2013-03-05 07:39:00,
2013-03-05 02:40:00,48.6,33.1,29.85,SSE,166,1.5,3.6,55,0.00,,,0.00,WUHU216HW,2013-03-05 07:40:00,
2013-03-05 02:41:00,48.6,33.1,29.85,SSE,158,2.0,3.6,55,0.00,,,0.00,WUHU216HW,2013-03-05 07:41:00,
2013-03-05 02:44:00,48.6,33.1,29.85,SSE,158,1.8,3.6,55,0.00,,,0.00,WUHU216HW,2013-03-05 07:44:00,
2013-03-05 02:45:00,48.6,33.1,29.85,SSE,165,1.3,2.7,55,0.00,,,0.00,WUHU216HW,2013-03-05 07:45:00,
2013-03-05 02:46:00,48.6,33.1,29.85,SSE,158,0.9,2.7,55,0.00,,,0.00,WUHU216HW,2013-03-05 07:46:00,
2013-03-05 02:50:00,48.6,33.6,29.85,South,180,2.5,3.6,56,0.00,,,0.00,WUHU216HW,2013-03-05 07:50:00,
2013-03-05 02:51:00,48.8,33.8,29.85,South,180,1.9,3.6,56,0.00,,,0.00,WUHU216HW,2013-03-05 07:51:00,
2013-03-05 02:52:00,48.8,33.8,29.85,South,180,1.3,3.6,56,0.00,,,0.00,WUHU216HW,2013-03-05 07:52:00,
2013-03-05 02:55:00,49.0,34.4,29.85,SSE,158,3.5,4.5,57,0.00,,,0.00,WUHU216HW,2013-03-05 07:55:00,
2013-03-05 02:56:00,49.0,34.4,29.85,SSE,165,1.9,4.5,57,0.00,,,0.00,WUHU216HW,2013-03-05 07:56:00,
2013-03-05 02:57:00,49.0,34.4,29.85,SSE,165,1.9,4.5,57,0.00,,,0.00,WUHU216HW,2013-03-05 07:57:00,
2013-03-05 03:00:00,49.0,34.4,29.85,SE,135,3.6,4.5,57,0.00,,,0.00,WUHU216HW,2013-03-05 08:00:00,
2013-03-05 03:01:00,49.0,34.4,29.85,SE,135,3.2,4.5,57,0.00,,,0.00,WUHU216HW,2013-03-05 08:01:00,
2013-03-05 03:02:00,49.1,34.6,29.85,SSE,158,4.0,4.5,57,0.00,,,0.00,WUHU216HW,2013-03-05 08:02:00,
2013-03-05 03:03:00,49.1,34.6,29.84,SSE,165,3.0,4.5,57,0.00,,,0.00,WUHU216HW,2013-03-05 08:03:00,
2013-03-05 03:05:00,49.1,34.6,29.84,SSE,157,3.0,4.0,57,0.00,,,0.00,WUHU216HW,2013-03-05 08:05:00,
2013-03-05 03:07:00,49.3,34.8,29.84,South,190,3.0,4.0,57,0.00,,,0.00,WUHU216HW,2013-03-05 08:07:00,
2013-03-05 03:09:00,49.3,34.8,29.84,SSE,159,2.6,4.0,57,0.00,,,0.00,WUHU216HW,2013-03-05 08:09:00,
2013-03-05 03:10:00,49.3,34.8,29.84,SW,225,1.0,4.0,57,0.00,,,0.00,WUHU216HW,2013-03-05 08:10:00,
2013-03-05 03:12:00,49.3,34.8,29.84,South,180,1.8,3.6,57,0.00,,,0.00,WUHU216HW,2013-03-05 08:12:00,
2013-03-05 03:14:00,49.3,34.8,29.84,SSE,158,4.0,4.0,57,0.00,,,0.00,WUHU216HW,2013-03-05 08:14:00,
2013-03-05 03:15:00,49.3,34.8,29.84,SSE,147,3.7,4.0,57,0.00,,,0.00,WUHU216HW,2013-03-05 08:15:00,
2013-03-05 03:17:00,49.3,34.8,29.84,SW,225,2.7,4.0,57,0.00,,,0.00,WUHU216HW,2013-03-05 08:17:00,
2013-03-05 03:18:00,49.3,34.8,29.84,SE,135,2.9,4.0,57,0.00,,,0.00,WUHU216HW,2013-03-05 08:18:00,
2013-03-05 03:19:00,49.3,34.8,29.84,SE,135,2.9,4.0,57,0.00,,,0.00,WUHU216HW,2013-03-05 08:19:00,
2013-03-05 03:20:00,49.3,35.2,29.84,SSE,152,2.3,4.0,58,0.00,,,0.00,WUHU216HW,2013-03-05 08:20:00,
2013-03-05 03:22:00,49.3,34.8,29.84,South,180,2.0,4.0,57,0.00,,,0.00,WUHU216HW,2013-03-05 08:22:00,
2013-03-05 03:24:00,49.3,34.8,29.84,SSW,203,3.1,3.4,57,0.00,,,0.00,WUHU216HW,2013-03-05 08:24:00,
2013-03-05 03:25:00,49.3,34.8,29.84,South,173,2.8,3.1,57,0.00,,,0.00,WUHU216HW,2013-03-05 08:25:00,
2013-03-05 03:26:00,49.3,34.8,29.84,SE,145,2.3,3.1,57,0.00,,,0.00,WUHU216HW,2013-03-05 08:26:00,
2013-03-05 03:29:00,49.3,34.8,29.84,ESE,113,2.0,3.1,57,0.00,,,0.00,WUHU216HW,2013-03-05 08:29:00,
2013-03-05 03:30:00,49.3,34.8,29.83,South,180,1.8,3.1,57,0.00,,,0.00,WUHU216HW,2013-03-05 08:30:00,
2013-03-05 03:32:00,49.3,34.8,29.83,SSE,158,1.1,3.1,57,0.00,,,0.00,WUHU216HW,2013-03-05 08:32:00,
2013-03-05 03:34:00,49.3,34.8,29.83,South,180,1.6,2.5,57,0.00,,,0.00,WUHU216HW,2013-03-05 08:34:00,
2013-03-05 03:36:00,49.3,35.2,29.83,South,180,1.8,2.0,58,0.00,,,0.00,WUHU216HW,2013-03-05 08:36:00,
2013-03-05 03:38:00,49.3,34.8,29.83,SSE,158,0.4,1.8,57,0.00,,,0.00,WUHU216HW,2013-03-05 08:38:00,
2013-03-05 03:41:00,49.3,34.8,29.83,SE,135,0.7,1.8,57,0.00,,,0.00,WUHU216HW,2013-03-05 08:41:00,
2013-03-05 03:43:00,49.3,35.2,29.83,SSW,203,1.8,1.8,58,0.00,,,0.00,WUHU216HW,2013-03-05 08:43:00,
2013-03-05 03:46:00,49.3,35.2,29.83,ESE,113,1.1,1.8,58,0.00,,,0.00,WUHU216HW,2013-03-05 08:46:00,
2013-03-05 03:48:00,49.3,35.2,29.83,SE,146,1.7,1.8,58,0.00,,,0.00,WUHU216HW,2013-03-05 08:48:00,
2013-03-05 03:50:00,49.3,35.2,29.83,SSE,165,1.7,2.2,58,0.00,,,0.00,WUHU216HW,2013-03-05 08:50:00,
2013-03-05 03:51:00,49.3,35.7,29.83,SSE,158,2.5,2.5,59,0.00,,,0.00,WUHU216HW,2013-03-05 08:51:00,
2013-03-05 03:52:00,49.3,35.7,29.83,SE,135,2.9,2.9,59,0.00,,,0.00,WUHU216HW,2013-03-05 08:52:00,
2013-03-05 03:54:00,49.3,35.7,29.83,SSE,154,4.1,4.7,59,0.00,,,0.00,WUHU216HW,2013-03-05 08:54:00,
2013-03-05 03:55:00,49.3,35.7,29.82,South,180,2.7,4.7,59,0.00,,,0.00,WUHU216HW,2013-03-05 08:55:00,
2013-03-05 03:57:00,49.3,35.7,29.82,SSW,203,2.2,4.7,59,0.00,,,0.00,WUHU216HW,2013-03-05 08:57:00,
2013-03-05 03:59:00,49.3,36.1,29.82,South,180,4.0,4.7,60,0.00,,,0.00,WUHU216HW,2013-03-05 08:59:00,
2013-03-05 04:01:00,49.3,36.1,29.82,SE,135,4.0,4.7,60,0.00,,,0.00,WUHU216HW,2013-03-05 09:01:00,
2013-03-05 04:02:00,49.3,36.5,29.82,SE,141,2.8,4.7,61,0.00,,,0.00,WUHU216HW,2013-03-05 09:02:00,
2013-03-05 04:03:00,49.3,36.1,29.82,South,180,1.6,4.5,60,0.00,,,0.00,WUHU216HW,2013-03-05 09:03:00,
2013-03-05 04:04:00,49.5,36.6,29.82,SSW,203,2.9,4.5,61,0.00,,,0.00,WUHU216HW,2013-03-05 09:04:00,
2013-03-05 04:06:00,49.5,36.6,29.82,SSW,203,3.1,4.5,61,0.00,,,0.00,WUHU216HW,2013-03-05 09:06:00,
2013-03-05 04:08:00,49.5,36.6,29.82,SSW,193,3.3,4.0,61,0.00,,,0.00,WUHU216HW,2013-03-05 09:08:00,
2013-03-05 04:09:00,49.7,36.8,29.82,South,190,2.3,4.0,61,0.00,,,0.00,WUHU216HW,2013-03-05 09:09:00,
2013-03-05 04:10:00,49.7,36.8,29.82,South,190,2.3,4.0,61,0.00,,,0.00,WUHU216HW,2013-03-05 09:10:00,
2013-03-05 04:11:00,49.7,36.8,29.82,SSE,158,3.1,4.0,61,0.00,,,0.00,WUHU216HW,2013-03-05 09:11:00,
2013-03-05 04:13:00,49.7,36.8,29.82,SSE,152,0.8,4.0,61,0.00,,,0.00,WUHU216HW,2013-03-05 09:13:00,
2013-03-05 04:15:00,49.7,36.8,29.82,SSE,158,1.8,3.8,61,0.00,,,0.00,WUHU216HW,2013-03-05 09:15:00,
2013-03-05 04:16:00,49.7,36.8,29.82,South,180,4.7,4.7,61,0.00,,,0.00,WUHU216HW,2013-03-05 09:16:00,
2013-03-05 04:18:00,49.7,36.8,29.81,SSW,203,1.1,4.7,61,0.00,,,0.00,WUHU216HW,2013-03-05 09:18:00,
2013-03-05 04:20:00,49.7,37.5,29.82,SSE,158,4.7,4.7,63,0.00,,,0.00,WUHU216HW,2013-03-05 09:20:00,
2013-03-05 04:21:00,49.7,37.2,29.82,SSE,167,3.0,4.7,62,0.00,,,0.00,WUHU216HW,2013-03-05 09:21:00,
2013-03-05 04:23:00,49.7,37.5,29.82,South,180,3.6,4.7,63,0.00,,,0.00,WUHU216HW,2013-03-05 09:23:00,
2013-03-05 04:26:00,49.7,37.2,29.81,SSW,203,2.7,4.7,62,0.00,,,0.00,WUHU216HW,2013-03-05 09:26:00,
2013-03-05 04:27:00,49.9,37.4,29.82,SSW,203,1.5,4.7,62,0.00,,,0.00,WUHU216HW,2013-03-05 09:27:00,
2013-03-05 04:28:00,49.9,37.7,29.82,SSE,158,2.5,4.7,63,0.00,,,0.00,WUHU216HW,2013-03-05 09:28:00,
2013-03-05 04:29:00,49.9,37.7,29.81,SSE,167,2.2,4.7,63,0.00,,,0.00,WUHU216HW,2013-03-05 09:29:00,
2013-03-05 04:31:00,49.9,37.7,29.82,SSE,168,2.0,3.6,63,0.00,,,0.00,WUHU216HW,2013-03-05 09:31:00,
2013-03-05 04:33:00,49.9,37.7,29.81,SE,135,3.8,3.8,63,0.00,,,0.00,WUHU216HW,2013-03-05 09:33:00,
2013-03-05 04:35:00,50.0,37.9,29.81,SE,135,2.5,3.8,63,0.00,,,0.00,WUHU216HW,2013-03-05 09:35:00,
2013-03-05 04:38:00,50.0,38.4,29.81,SSE,150,3.2,4.3,64,0.00,,,0.00,WUHU216HW,2013-03-05 09:38:00,
2013-03-05 04:39:00,50.0,38.4,29.81,SSE,150,3.2,4.3,64,0.00,,,0.00,WUHU216HW,2013-03-05 09:39:00,
2013-03-05 04:40:00,50.0,38.4,29.81,SE,135,5.4,5.4,64,0.00,,,0.00,WUHU216HW,2013-03-05 09:40:00,
2013-03-05 04:43:00,50.2,38.4,29.81,SSE,158,4.7,5.4,64,0.00,,,0.00,WUHU216HW,2013-03-05 09:43:00,
2013-03-05 04:44:00,50.2,38.4,29.81,SSE,158,4.7,5.4,64,0.00,,,0.00,WUHU216HW,2013-03-05 09:44:00,
2013-03-05 04:45:00,50.2,38.4,29.81,SSE,158,4.3,5.4,64,0.00,,,0.00,WUHU216HW,2013-03-05 09:45:00,
2013-03-05 04:46:00,50.2,38.4,29.81,SE,146,2.3,5.4,64,0.00,,,0.00,WUHU216HW,2013-03-05 09:46:00,
2013-03-05 04:48:00,50.2,38.4,29.81,SSW,203,3.4,5.4,64,0.00,,,0.00,WUHU216HW,2013-03-05 09:48:00,
2013-03-05 04:50:00,50.2,38.4,29.81,SSW,211,2.8,5.4,64,0.00,,,0.00,WUHU216HW,2013-03-05 09:50:00,
2013-03-05 04:53:00,50.4,38.6,29.82,SSE,158,2.5,4.0,64,0.00,,,0.00,WUHU216HW,2013-03-05 09:53:00,
2013-03-05 04:55:00,50.4,39.1,29.82,SSE,158,3.8,6.5,65,0.00,,,0.00,WUHU216HW,2013-03-05 09:55:00,
2013-03-05 04:56:00,50.4,38.6,29.82,SSW,203,1.3,6.5,64,0.00,,,0.00,WUHU216HW,2013-03-05 09:56:00,
2013-03-05 04:58:00,50.4,38.6,29.82,South,180,2.5,6.5,64,0.00,,,0.00,WUHU216HW,2013-03-05 09:58:00,
2013-03-05 04:59:00,50.4,39.1,29.82,SE,135,2.7,6.5,65,0.00,,,0.00,WUHU216HW,2013-03-05 09:59:00,
2013-03-05 05:01:00,50.4,39.4,29.82,SSW,203,2.2,6.5,66,0.00,,,0.00,WUHU216HW,2013-03-05 10:01:00,
2013-03-05 05:05:00,50.4,39.4,29.82,SSE,158,3.8,3.8,66,0.00,,,0.00,WUHU216HW,2013-03-05 10:05:00,
2013-03-05 05:06:00,50.2,38.9,29.82,SSE,158,3.3,3.8,65,0.00,,,0.00,WUHU216HW,2013-03-05 10:06:00,
2013-03-05 05:07:00,50.2,38.9,29.82,SSE,158,2.5,3.8,65,0.00,,,0.00,WUHU216HW,2013-03-05 10:07:00,
2013-03-05 05:10:00,50.2,38.9,29.82,SSW,203,3.1,3.8,65,0.00,,,0.00,WUHU216HW,2013-03-05 10:10:00,
2013-03-05 05:11:00,50.2,38.9,29.82,South,186,2.1,3.8,65,0.00,,,0.00,WUHU216HW,2013-03-05 10:11:00,
2013-03-05 05:12:00,50.2,39.2,29.81,SSE,158,3.1,3.8,66,0.00,,,0.00,WUHU216HW,2013-03-05 10:12:00,
2013-03-05 05:15:00,50.4,39.1,29.82,ESE,113,1.6,3.1,65,0.00,,,0.00,WUHU216HW,2013-03-05 10:15:00,
2013-03-05 05:16:00,50.4,39.4,29.82,SE,138,1.1,3.1,66,0.00,,,0.00,WUHU216HW,2013-03-05 10:16:00,
2013-03-05 05:17:00,50.4,39.4,29.82,SSE,158,1.8,3.1,66,0.00,,,0.00,WUHU216HW,2013-03-05 10:17:00,
2013-03-05 05:18:00,50.4,39.4,29.82,SE,135,3.4,3.4,66,0.00,,,0.00,WUHU216HW,2013-03-05 10:18:00,
2013-03-05 05:20:00,50.4,39.9,29.82,SSW,203,2.5,3.4,67,0.00,,,0.00,WUHU216HW,2013-03-05 10:20:00,
2013-03-05 05:22:00,50.4,39.4,29.81,South,184,3.0,3.6,66,0.00,,,0.00,WUHU216HW,2013-03-05 10:22:00,
2013-03-05 05:23:00,50.4,39.4,29.81,SSE,158,3.8,3.8,66,0.00,,,0.00,WUHU216HW,2013-03-05 10:23:00,
2013-03-05 05:25:00,50.4,39.9,29.82,SE,135,3.6,3.8,67,0.00,,,0.00,WUHU216HW,2013-03-05 10:25:00,
2013-03-05 05:27:00,50.4,39.4,29.82,SSE,158,4.0,4.0,66,0.00,,,0.00,WUHU216HW,2013-03-05 10:27:00,
2013-03-05 05:28:00,50.4,39.9,29.82,South,175,3.3,4.0,67,0.00,,,0.00,WUHU216HW,2013-03-05 10:28:00,
2013-03-05 05:31:00,50.4,39.9,29.81,South,180,2.9,4.0,67,0.00,,,0.00,WUHU216HW,2013-03-05 10:31:00,
2013-03-05 05:33:00,50.2,40.1,29.81,SSW,203,2.9,4.0,68,0.00,,,0.00,WUHU216HW,2013-03-05 10:33:00,
2013-03-05 05:34:00,50.2,40.1,29.82,SSW,211,2.3,4.0,68,0.00,,,0.00,WUHU216HW,2013-03-05 10:34:00,
2013-03-05 05:36:00,50.2,40.1,29.81,SW,225,2.2,4.0,68,0.00,,,0.00,WUHU216HW,2013-03-05 10:36:00,
2013-03-05 05:38:00,50.0,39.9,29.81,SSE,158,2.7,2.9,68,0.00,,,0.00,WUHU216HW,2013-03-05 10:38:00,
2013-03-05 05:40:00,50.0,41.4,29.81,SSW,203,2.5,2.9,72,0.00,,,0.00,WUHU216HW,2013-03-05 10:40:00,
2013-03-05 05:41:00,50.0,40.7,29.82,South,180,2.5,2.9,70,0.00,,,0.00,WUHU216HW,2013-03-05 10:41:00,
2013-03-05 05:44:00,49.9,40.2,29.82,SSW,192,1.4,2.9,69,0.00,,,0.00,WUHU216HW,2013-03-05 10:44:00,
2013-03-05 05:45:00,49.9,40.2,29.82,WSW,237,1.0,2.9,69,0.00,,,0.00,WUHU216HW,2013-03-05 10:45:00,
2013-03-05 05:46:00,49.7,40.3,29.82,SSE,158,1.6,2.9,70,0.00,,,0.00,WUHU216HW,2013-03-05 10:46:00,
2013-03-05 05:47:00,49.7,40.3,29.82,SSE,158,1.8,2.5,70,0.00,,,0.00,WUHU216HW,2013-03-05 10:47:00,
2013-03-05 05:49:00,49.7,40.7,29.82,SSE,158,2.7,2.7,71,0.00,,,0.00,WUHU216HW,2013-03-05 10:49:00,
2013-03-05 05:51:00,49.5,40.5,29.82,SE,135,2.2,2.7,71,0.00,,,0.00,WUHU216HW,2013-03-05 10:51:00,
2013-03-05 05:53:00,49.3,40.7,29.82,South,180,1.3,2.7,72,0.00,,,0.00,WUHU216HW,2013-03-05 10:53:00,
2013-03-05 05:54:00,49.3,40.3,29.82,SE,135,2.9,2.9,71,0.00,,,0.00,WUHU216HW,2013-03-05 10:54:00,
2013-03-05 05:56:00,49.3,40.7,29.82,South,187,1.0,2.9,72,0.00,,,0.00,WUHU216HW,2013-03-05 10:56:00,
2013-03-05 05:57:00,49.3,40.7,29.81,SSE,158,0.7,2.9,72,0.00,,,0.00,WUHU216HW,2013-03-05 10:57:00,
2013-03-05 05:59:00,49.3,40.7,29.82,SSE,158,1.3,2.9,72,0.00,,,0.00,WUHU216HW,2013-03-05 10:59:00,
2013-03-05 06:00:00,49.3,40.7,29.82,South,188,1.2,2.9,72,0.00,,,0.00,WUHU216HW,2013-03-05 11:00:00,
2013-03-05 06:02:00,49.3,40.7,29.82,SSE,158,1.8,2.9,72,0.00,,,0.00,WUHU216HW,2013-03-05 11:02:00,
2013-03-05 06:03:00,49.3,40.7,29.82,SSE,158,1.0,2.9,72,0.00,,,0.00,WUHU216HW,2013-03-05 11:03:00,
2013-03-05 06:04:00,49.3,40.7,29.82,ESE,113,1.1,2.5,72,0.00,,,0.00,WUHU216HW,2013-03-05 11:04:00,
2013-03-05 06:06:00,49.3,41.0,29.82,WSW,248,4.0,4.0,73,0.00,,,0.00,WUHU216HW,2013-03-05 11:06:00,
2013-03-05 06:07:00,49.3,40.7,29.82,SW,227,3.7,4.0,72,0.00,,,0.00,WUHU216HW,2013-03-05 11:07:00,
2013-03-05 06:08:00,49.3,40.7,29.81,SSW,195,2.5,4.0,72,0.00,,,0.00,WUHU216HW,2013-03-05 11:08:00,
2013-03-05 06:10:00,49.3,40.7,29.82,South,180,2.5,4.0,72,0.00,,,0.00,WUHU216HW,2013-03-05 11:10:00,
2013-03-05 06:13:00,49.3,41.0,29.81,SE,135,3.1,4.0,73,0.00,,,0.00,WUHU216HW,2013-03-05 11:13:00,
2013-03-05 06:14:00,49.3,41.0,29.81,SE,145,2.8,4.0,73,0.00,,,0.00,WUHU216HW,2013-03-05 11:14:00,
2013-03-05 06:15:00,49.3,41.7,29.81,SW,225,5.8,5.8,75,0.00,,,0.00,WUHU216HW,2013-03-05 11:15:00,
2013-03-05 06:19:00,49.3,42.0,29.81,SSE,158,2.5,5.8,76,0.00,,,0.00,WUHU216HW,2013-03-05 11:19:00,
2013-03-05 06:20:00,49.3,41.7,29.81,South,180,4.0,5.8,75,0.00,,,0.00,WUHU216HW,2013-03-05 11:20:00,
2013-03-05 06:21:00,49.3,41.3,29.81,South,169,2.5,5.8,74,0.00,,,0.00,WUHU216HW,2013-03-05 11:21:00,
2013-03-05 06:24:00,49.5,41.5,29.81,South,186,2.3,5.8,74,0.00,,,0.00,WUHU216HW,2013-03-05 11:24:00,
2013-03-05 06:26:00,49.7,41.7,29.81,SE,135,2.9,4.0,74,0.00,,,0.00,WUHU216HW,2013-03-05 11:26:00,
2013-03-05 06:27:00,49.7,42.0,29.81,South,180,3.6,4.0,75,0.00,,,0.00,WUHU216HW,2013-03-05 11:27:00,
2013-03-05 06:30:00,49.7,42.0,29.81,SSW,203,1.8,3.6,75,0.00,,,0.00,WUHU216HW,2013-03-05 11:30:00,
2013-03-05 06:31:00,49.7,42.0,29.81,SSW,212,1.5,3.6,75,0.00,,,0.00,WUHU216HW,2013-03-05 11:31:00,
2013-03-05 06:32:00,49.7,41.7,29.81,SW,220,0.8,3.6,74,0.00,,,0.00,WUHU216HW,2013-03-05 11:32:00,
2013-03-05 06:35:00,49.9,42.2,29.81,SSE,158,3.4,3.6,75,0.00,,,0.00,WUHU216HW,2013-03-05 11:35:00,
2013-03-05 06:37:00,49.9,42.2,29.81,SSW,203,2.2,3.4,75,0.00,,,0.00,WUHU216HW,2013-03-05 11:37:00,
2013-03-05 06:38:00,49.9,42.2,29.81,South,180,4.0,4.0,75,0.00,,,0.00,WUHU216HW,2013-03-05 11:38:00,
2013-03-05 06:40:00,49.9,42.2,29.81,South,180,2.2,4.0,75,0.00,,,0.00,WUHU216HW,2013-03-05 11:40:00,
2013-03-05 06:42:00,50.0,42.4,29.81,SE,135,1.3,4.0,75,0.00,,,0.00,WUHU216HW,2013-03-05 11:42:00,
2013-03-05 06:43:00,50.0,42.4,29.81,SSE,158,2.2,4.0,75,0.00,,,0.00,WUHU216HW,2013-03-05 11:43:00,
2013-03-05 06:46:00,50.0,42.4,29.81,South,180,2.5,4.0,75,0.00,,,0.00,WUHU216HW,2013-03-05 11:46:00,
2013-03-05 06:47:00,50.0,42.4,29.81,SSE,159,2.3,4.0,75,0.00,,,0.00,WUHU216HW,2013-03-05 11:47:00,
2013-03-05 06:48:00,50.0,42.4,29.81,SSE,156,1.7,2.5,75,0.00,,,0.00,WUHU216HW,2013-03-05 11:48:00,
2013-03-05 06:49:00,50.0,42.8,29.81,ESE,113,1.8,2.5,76,0.00,,,0.00,WUHU216HW,2013-03-05 11:49:00,
2013-03-05 06:53:00,50.0,42.4,29.81,SE,135,2.2,2.5,75,0.00,,,0.00,WUHU216HW,2013-03-05 11:53:00,
2013-03-05 06:54:00,50.2,42.6,29.81,SSW,203,3.1,3.1,75,0.00,,,0.00,WUHU216HW,2013-03-05 11:54:00,
2013-03-05 06:58:00,50.2,42.6,29.81,SSE,158,2.9,3.1,75,0.00,,,0.00,WUHU216HW,2013-03-05 11:58:00,
2013-03-05 06:59:00,50.2,42.6,29.81,SSE,158,2.9,3.1,75,0.00,,,0.00,WUHU216HW,2013-03-05 11:59:00,
2013-03-05 07:03:00,50.4,42.8,29.81,SW,225,2.9,3.6,75,0.00,,,0.00,WUHU216HW,2013-03-05 12:03:00,
2013-03-05 07:04:00,50.4,43.1,29.81,South,188,2.3,3.6,76,0.00,,,0.00,WUHU216HW,2013-03-05 12:04:00,
2013-03-05 07:05:00,50.4,43.1,29.81,ESE,123,1.7,3.6,76,0.00,,,0.00,WUHU216HW,2013-03-05 12:05:00,
2013-03-05 07:09:00,50.6,43.3,29.81,WSW,248,2.0,5.4,76,0.00,,,0.00,WUHU216HW,2013-03-05 12:09:00,
2013-03-05 07:11:00,50.6,43.9,29.81,WSW,248,1.1,5.4,78,0.00,,,0.00,WUHU216HW,2013-03-05 12:11:00,
2013-03-05 07:14:00,50.6,43.9,29.81,South,180,4.0,5.4,78,0.00,,,0.00,WUHU216HW,2013-03-05 12:14:00,
2013-03-05 07:15:00,50.6,43.7,29.81,South,180,3.3,5.4,77,0.00,,,0.00,WUHU216HW,2013-03-05 12:15:00,
2013-03-05 07:16:00,50.6,43.3,29.81,South,169,2.3,5.4,76,0.00,,,0.00,WUHU216HW,2013-03-05 12:16:00,
2013-03-05 07:20:00,50.6,43.7,29.81,SSE,168,2.7,4.0,77,0.00,,,0.00,WUHU216HW,2013-03-05 12:20:00,
2013-03-05 07:21:00,50.8,44.1,29.81,SSW,203,6.3,6.3,78,0.00,,,0.00,WUHU216HW,2013-03-05 12:21:00,
2013-03-05 07:26:00,50.8,43.8,29.81,SW,215,2.3,6.3,77,0.00,,,0.00,WUHU216HW,2013-03-05 12:26:00,
2013-03-05 07:27:00,50.8,43.8,29.81,SE,135,3.8,6.3,77,0.00,,,0.00,WUHU216HW,2013-03-05 12:27:00,
2013-03-05 07:31:00,50.9,44.0,29.81,SE,145,2.3,5.1,77,0.00,,,0.00,WUHU216HW,2013-03-05 12:31:00,
2013-03-05 07:32:00,50.8,44.1,29.81,SW,225,5.1,5.1,78,0.00,,,0.00,WUHU216HW,2013-03-05 12:32:00,
2013-03-05 07:34:00,50.9,44.0,29.81,SSE,158,5.8,5.8,77,0.00,,,0.00,WUHU216HW,2013-03-05 12:34:00,
2013-03-05 07:36:00,50.9,44.0,29.81,SSE,158,4.0,5.8,77,0.00,,,0.00,WUHU216HW,2013-03-05 12:36:00,
2013-03-05 07:37:00,50.9,44.0,29.81,South,185,2.2,5.8,77,0.00,,,0.00,WUHU216HW,2013-03-05 12:37:00,
2013-03-05 07:38:00,51.1,44.5,29.81,SSW,203,5.1,5.8,78,0.00,,,0.00,WUHU216HW,2013-03-05 12:38:00,
2013-03-05 07:40:00,51.1,44.8,29.81,SW,230,4.9,5.8,79,0.00,,,0.00,WUHU216HW,2013-03-05 12:40:00,
2013-03-05 07:41:00,51.1,44.5,29.81,SW,225,5.8,5.8,78,0.00,,,0.00,WUHU216HW,2013-03-05 12:41:00,
2013-03-05 07:42:00,51.1,44.5,29.81,SSW,201,4.6,5.8,78,0.00,,,0.00,WUHU216HW,2013-03-05 12:42:00,
2013-03-05 07:43:00,51.1,44.5,29.81,South,179,3.3,5.8,78,0.00,,,0.00,WUHU216HW,2013-03-05 12:43:00,
2013-03-05 07:46:00,51.1,44.5,29.81,SSE,158,4.9,6.9,78,0.00,,,0.00,WUHU216HW,2013-03-05 12:46:00,
2013-03-05 07:48:00,51.3,44.6,29.81,SSE,158,4.9,6.9,78,0.00,,,0.00,WUHU216HW,2013-03-05 12:48:00,
2013-03-05 07:49:00,51.1,44.5,29.81,SSE,149,3.9,6.9,78,0.00,,,0.00,WUHU216HW,2013-03-05 12:49:00,
2013-03-05 07:51:00,51.3,44.6,29.81,SE,137,4.3,6.9,78,0.00,,,0.00,WUHU216HW,2013-03-05 12:51:00,
2013-03-05 07:52:00,51.3,44.6,29.81,SE,137,4.3,6.9,78,0.00,,,0.00,WUHU216HW,2013-03-05 12:52:00,
2013-03-05 07:54:00,51.3,45.0,29.81,South,180,4.5,4.9,79,0.00,,,0.00,WUHU216HW,2013-03-05 12:54:00,
2013-03-05 07:55:00,51.5,44.8,29.81,South,170,4.2,4.9,78,0.00,,,0.00,WUHU216HW,2013-03-05 12:55:00,
2013-03-05 07:57:00,51.5,45.2,29.81,SSE,158,6.3,6.3,79,0.00,,,0.00,WUHU216HW,2013-03-05 12:57:00,
2013-03-05 07:59:00,51.5,45.2,29.81,ESE,113,4.0,6.3,79,0.00,,,0.00,WUHU216HW,2013-03-05 12:59:00,
2013-03-05 08:00:00,51.5,44.8,29.81,SE,135,3.1,6.3,78,0.00,,,0.00,WUHU216HW,2013-03-05 13:00:00,
2013-03-05 08:02:00,51.5,44.8,29.81,South,180,5.1,6.3,78,0.00,,,0.00,WUHU216HW,2013-03-05 13:02:00,
2013-03-05 08:03:00,51.5,44.8,29.81,SSE,161,3.7,6.3,78,0.00,,,0.00,WUHU216HW,2013-03-05 13:03:00,
2013-03-05 08:05:00,51.5,44.8,29.81,South,180,4.7,6.3,78,0.00,,,0.00,WUHU216HW,2013-03-05 13:05:00,
2013-03-05 08:08:00,51.7,45.0,29.81,SSE,167,2.6,5.1,78,0.00,,,0.00,WUHU216HW,2013-03-05 13:08:00,
2013-03-05 08:09:00,51.7,45.0,29.81,SSW,203,1.8,5.1,78,0.00,,,0.00,WUHU216HW,2013-03-05 13:09:00,
2013-03-05 08:10:00,51.7,45.0,29.81,South,180,3.4,5.1,78,0.00,,,0.00,WUHU216HW,2013-03-05 13:10:00,
2013-03-05 08:11:00,51.8,45.2,29.81,SSE,158,3.6,5.1,78,0.00,,,0.00,WUHU216HW,2013-03-05 13:11:00,
2013-03-05 08:13:00,51.8,45.2,29.81,South,188,1.7,4.9,78,0.00,,,0.00,WUHU216HW,2013-03-05 13:13:00,
2013-03-05 08:14:00,51.8,45.2,29.81,SSE,158,4.0,4.9,78,0.00,,,0.00,WUHU216HW,2013-03-05 13:14:00,
2013-03-05 08:15:00,51.8,45.2,29.81,SE,135,4.0,4.7,78,0.00,,,0.00,WUHU216HW,2013-03-05 13:15:00,
2013-03-05 08:16:00,52.0,45.7,29.81,SSW,203,5.1,5.1,79,0.00,,,0.00,WUHU216HW,2013-03-05 13:16:00,
2013-03-05 08:20:00,52.0,45.4,29.81,SSE,163,3.8,5.1,78,0.00,,,0.00,WUHU216HW,2013-03-05 13:20:00,
2013-03-05 08:22:00,52.0,45.4,29.81,SSW,203,3.8,5.1,78,0.00,,,0.00,WUHU216HW,2013-03-05 13:22:00,
2013-03-05 08:25:00,52.2,45.9,29.81,SE,135,6.3,6.3,79,0.00,,,0.00,WUHU216HW,2013-03-05 13:25:00,
2013-03-05 08:26:00,52.2,45.9,29.81,SSE,164,5.6,6.3,79,0.00,,,0.00,WUHU216HW,2013-03-05 13:26:00,
2013-03-05 08:27:00,52.2,45.9,29.81,South,190,3.5,6.3,79,0.00,,,0.00,WUHU216HW,2013-03-05 13:27:00,
2013-03-05 08:30:00,52.4,45.7,29.81,SW,225,3.8,6.3,78,0.00,,,0.00,WUHU216HW,2013-03-05 13:30:00,
2013-03-05 08:31:00,52.4,45.7,29.81,SSW,203,5.4,6.3,78,0.00,,,0.00,WUHU216HW,2013-03-05 13:31:00,
2013-03-05 08:32:00,52.4,45.7,29.81,South,182,5.1,6.3,78,0.00,,,0.00,WUHU216HW,2013-03-05 13:32:00,
2013-03-05 08:33:00,52.4,45.7,29.81,South,182,5.1,6.3,78,0.00,,,0.00,WUHU216HW,2013-03-05 13:33:00,
2013-03-05 08:35:00,52.4,45.7,29.81,SE,135,6.0,6.0,78,0.00,,,0.00,WUHU216HW,2013-03-05 13:35:00,
2013-03-05 08:37:00,52.4,46.1,29.80,SSE,158,2.7,6.0,79,0.00,,,0.00,WUHU216HW,2013-03-05 13:37:00,
2013-03-05 08:38:00,52.4,46.1,29.80,SSE,158,2.7,6.0,79,0.00,,,0.00,WUHU216HW,2013-03-05 13:38:00,
2013-03-05 08:41:00,52.6,45.9,29.81,SW,225,2.5,6.0,78,0.00,,,0.00,WUHU216HW,2013-03-05 13:41:00,
2013-03-05 08:42:00,52.6,45.9,29.81,SSW,203,3.4,6.0,78,0.00,,,0.00,WUHU216HW,2013-03-05 13:42:00,
2013-03-05 08:43:00,52.6,45.9,29.81,SSW,203,2.3,6.0,78,0.00,,,0.00,WUHU216HW,2013-03-05 13:43:00,
2013-03-05 08:46:00,52.6,45.9,29.81,SE,135,1.1,4.9,78,0.00,,,0.00,WUHU216HW,2013-03-05 13:46:00,
2013-03-05 08:47:00,52.7,46.1,29.81,ESE,113,3.4,4.9,78,0.00,,,0.00,WUHU216HW,2013-03-05 13:47:00,
2013-03-05 08:48:00,52.7,46.1,29.80,SSE,158,5.8,5.8,78,0.00,,,0.00,WUHU216HW,2013-03-05 13:48:00,
2013-03-05 08:49:00,52.7,46.4,29.81,South,171,4.2,5.8,79,0.00,,,0.00,WUHU216HW,2013-03-05 13:49:00,
2013-03-05 08:52:00,52.9,47.0,29.81,SSE,166,4.9,6.3,80,0.00,,,0.00,WUHU216HW,2013-03-05 13:52:00,
2013-03-05 08:53:00,52.9,46.6,29.80,SSE,161,3.2,6.3,79,0.00,,,0.00,WUHU216HW,2013-03-05 13:53:00,
2013-03-05 08:54:00,52.9,46.3,29.80,ESE,113,4.7,6.3,78,0.00,,,0.00,WUHU216HW,2013-03-05 13:54:00,
2013-03-05 08:58:00,53.1,46.8,29.80,SSW,203,2.7,6.5,79,0.00,,,0.00,WUHU216HW,2013-03-05 13:58:00,
2013-03-05 08:59:00,52.9,46.6,29.80,SE,135,4.3,6.5,79,0.00,,,0.00,WUHU216HW,2013-03-05 13:59:00,
2013-03-05 09:04:00,52.9,46.3,29.81,SSW,203,2.9,6.5,78,0.00,,,0.00,WUHU216HW,2013-03-05 14:04:00,
2013-03-05 09:06:00,53.1,46.8,29.80,SSW,203,4.3,6.5,79,0.00,,,0.00,WUHU216HW,2013-03-05 14:06:00,
2013-03-05 09:09:00,52.9,46.6,29.80,SW,225,3.8,7.4,79,0.00,,,0.00,WUHU216HW,2013-03-05 14:09:00,
2013-03-05 09:11:00,53.1,46.8,29.80,SW,225,2.9,7.4,79,0.00,,,0.00,WUHU216HW,2013-03-05 14:11:00,
2013-03-05 09:12:00,53.1,46.8,29.80,SSW,193,2.3,7.4,79,0.00,,,0.00,WUHU216HW,2013-03-05 14:12:00,
2013-03-05 09:15:00,53.1,46.8,29.80,ESE,120,3.0,7.4,79,0.00,,,0.00,WUHU216HW,2013-03-05 14:15:00,
2013-03-05 09:16:00,53.1,46.8,29.80,SE,135,3.6,7.4,79,0.00,,,0.00,WUHU216HW,2013-03-05 14:16:00,
2013-03-05 09:17:00,53.1,46.4,29.80,SSE,164,2.8,4.0,78,0.00,,,0.00,WUHU216HW,2013-03-05 14:17:00,
2013-03-05 09:18:00,53.3,46.6,29.80,SSW,209,1.4,4.0,78,0.00,,,0.00,WUHU216HW,2013-03-05 14:18:00,
2013-03-05 09:20:00,53.3,47.3,29.80,South,175,2.8,4.0,80,0.00,,,0.00,WUHU216HW,2013-03-05 14:20:00,
2013-03-05 09:22:00,53.3,46.6,29.80,SSE,167,4.7,5.4,78,0.00,,,0.00,WUHU216HW,2013-03-05 14:22:00,
2013-03-05 09:23:00,53.5,47.2,29.79,WNW,293,4.0,5.4,79,0.00,,,0.00,WUHU216HW,2013-03-05 14:23:00,
2013-03-05 09:25:00,53.5,47.2,29.79,SSW,203,5.6,5.6,79,0.00,,,0.00,WUHU216HW,2013-03-05 14:25:00,
2013-03-05 09:26:00,53.6,47.7,29.79,SW,214,5.5,5.6,80,0.00,,,0.00,WUHU216HW,2013-03-05 14:26:00,
2013-03-05 09:27:00,53.6,47.3,29.79,SSW,210,4.2,5.6,79,0.00,,,0.00,WUHU216HW,2013-03-05 14:27:00,
2013-03-05 09:29:00,53.6,47.3,29.79,SE,139,2.7,5.6,79,0.00,,,0.00,WUHU216HW,2013-03-05 14:29:00,
2013-03-05 09:30:00,53.6,47.7,29.79,South,180,4.0,5.6,80,0.00,,,0.00,WUHU216HW,2013-03-05 14:30:00,
2013-03-05 09:31:00,53.8,47.5,29.79,South,180,6.9,6.9,79,0.00,,,0.00,WUHU216HW,2013-03-05 14:31:00,
2013-03-05 09:32:00,54.0,48.1,29.79,South,180,5.4,6.9,80,0.00,,,0.00,WUHU216HW,2013-03-05 14:32:00,
2013-03-05 09:34:00,54.0,48.1,29.79,South,189,3.5,6.9,80,0.00,,,0.00,WUHU216HW,2013-03-05 14:34:00,
2013-03-05 09:37:00,54.2,48.2,29.79,SSW,194,3.8,6.9,80,0.00,,,0.00,WUHU216HW,2013-03-05 14:37:00,
2013-03-05 09:38:00,54.2,47.8,29.79,South,180,4.0,6.9,79,0.00,,,0.00,WUHU216HW,2013-03-05 14:38:00,
2013-03-05 09:40:00,54.4,48.0,29.79,South,171,5.0,6.9,79,0.00,,,0.00,WUHU216HW,2013-03-05 14:40:00,
2013-03-05 09:42:00,54.4,48.0,29.79,SSE,158,4.5,6.9,79,0.00,,,0.00,WUHU216HW,2013-03-05 14:42:00,
2013-03-05 09:43:00,54.4,48.3,29.79,SSW,203,12.8,12.8,80,0.00,,,0.00,WUHU216HW,2013-03-05 14:43:00,
2013-03-05 09:45:00,54.4,48.0,29.79,SSE,152,4.0,12.8,79,0.00,,,0.00,WUHU216HW,2013-03-05 14:45:00,
2013-03-05 09:48:00,54.4,47.6,29.78,South,180,9.8,12.8,78,0.00,,,0.00,WUHU216HW,2013-03-05 14:48:00,
2013-03-05 09:49:00,54.4,47.6,29.78,South,171,8.3,12.8,78,0.00,,,0.00,WUHU216HW,2013-03-05 14:49:00,
2013-03-05 09:52:00,54.4,48.0,29.78,South,180,6.7,12.8,79,0.00,,,0.00,WUHU216HW,2013-03-05 14:52:00,
2013-03-05 09:54:00,54.5,47.8,29.78,SSW,203,4.7,9.8,78,0.00,,,0.00,WUHU216HW,2013-03-05 14:54:00,
2013-03-05 09:57:00,54.5,47.8,29.78,ESE,114,2.9,9.8,78,0.00,,,0.00,WUHU216HW,2013-03-05 14:57:00,
2013-03-05 09:59:00,54.7,48.3,29.78,SSE,149,2.9,6.7,79,0.00,,,0.00,WUHU216HW,2013-03-05 14:59:00,
2013-03-05 10:00:00,54.7,48.3,29.77,ESE,116,2.6,6.7,79,0.00,,,0.00,WUHU216HW,2013-03-05 15:00:00,
2013-03-05 10:01:00,54.7,48.3,29.77,ESE,116,2.6,6.7,79,0.00,,,0.00,WUHU216HW,2013-03-05 15:01:00,
2013-03-05 10:02:00,54.7,48.0,29.77,WSW,248,3.6,4.7,78,0.00,,,0.00,WUHU216HW,2013-03-05 15:02:00,
2013-03-05 10:04:00,54.7,48.0,29.77,South,172,3.8,5.8,78,0.00,,,0.00,WUHU216HW,2013-03-05 15:04:00,
2013-03-05 10:06:00,54.7,48.0,29.77,SSW,200,3.9,5.8,78,0.00,,,0.00,WUHU216HW,2013-03-05 15:06:00,
2013-03-05 10:07:00,54.9,48.2,29.77,SE,135,6.0,6.0,78,0.00,,,0.00,WUHU216HW,2013-03-05 15:07:00,
2013-03-05 10:10:00,54.9,48.5,29.76,South,180,5.6,6.0,79,0.00,,,0.00,WUHU216HW,2013-03-05 15:10:00,
2013-03-05 10:11:00,54.9,48.5,29.76,South,180,4.8,6.0,79,0.00,,,0.00,WUHU216HW,2013-03-05 15:11:00,
2013-03-05 10:13:00,54.9,48.2,29.76,SE,135,3.3,6.0,78,0.00,,,0.00,WUHU216HW,2013-03-05 15:13:00,
2013-03-05 10:15:00,55.1,48.7,29.77,SSW,203,6.0,6.0,79,0.00,,,0.00,WUHU216HW,2013-03-05 15:15:00,
2013-03-05 10:17:00,55.1,48.7,29.76,South,180,6.2,6.3,79,0.00,,,0.00,WUHU216HW,2013-03-05 15:17:00,
2013-03-05 10:18:00,55.1,48.7,29.76,South,188,4.6,6.3,79,0.00,,,0.00,WUHU216HW,2013-03-05 15:18:00,
2013-03-05 10:21:00,55.1,48.7,29.76,ESE,113,4.5,6.3,79,0.00,,,0.00,WUHU216HW,2013-03-05 15:21:00,
2013-03-05 10:22:00,55.3,48.8,29.76,SSE,158,5.1,6.3,79,0.00,,,0.00,WUHU216HW,2013-03-05 15:22:00,
2013-03-05 10:23:00,55.3,48.5,29.76,SSE,158,4.6,6.3,78,0.00,,,0.00,WUHU216HW,2013-03-05 15:23:00,
2013-03-05 10:24:00,55.3,48.8,29.76,South,180,4.5,6.3,79,0.00,,,0.00,WUHU216HW,2013-03-05 15:24:00,
2013-03-05 10:26:00,55.3,48.5,29.76,South,180,4.7,6.0,78,0.00,,,0.00,WUHU216HW,2013-03-05 15:26:00,
2013-03-05 10:27:00,55.4,48.6,29.76,SE,135,6.0,6.0,78,0.00,,,0.00,WUHU216HW,2013-03-05 15:27:00,
2013-03-05 10:28:00,55.3,48.8,29.76,SSE,156,5.6,6.0,79,0.00,,,0.00,WUHU216HW,2013-03-05 15:28:00,
2013-03-05 10:30:00,55.4,49.0,29.75,SSW,192,3.9,6.0,79,0.00,,,0.00,WUHU216HW,2013-03-05 15:30:00,
2013-03-05 10:31:00,55.4,49.0,29.76,South,186,2.0,6.0,79,0.00,,,0.00,WUHU216HW,2013-03-05 15:31:00,
2013-03-05 10:33:00,55.4,48.6,29.75,SW,225,5.4,6.0,78,0.00,,,0.00,WUHU216HW,2013-03-05 15:33:00,
2013-03-05 10:34:00,55.6,49.1,29.75,South,183,5.5,6.3,79,0.00,,,0.00,WUHU216HW,2013-03-05 15:34:00,
2013-03-05 10:36:00,55.8,49.0,29.75,SSE,148,4.1,6.3,78,0.00,,,0.00,WUHU216HW,2013-03-05 15:36:00,
2013-03-05 10:37:00,55.8,49.0,29.75,SSW,203,6.5,6.5,78,0.00,,,0.00,WUHU216HW,2013-03-05 15:37:00,
2013-03-05 10:38:00,55.8,49.0,29.75,South,180,3.3,6.5,78,0.00,,,0.00,WUHU216HW,2013-03-05 15:38:00,
2013-03-05 10:39:00,55.8,49.0,29.75,SW,225,5.4,6.5,78,0.00,,,0.00,WUHU216HW,2013-03-05 15:39:00,
2013-03-05 10:41:00,55.8,49.0,29.75,SSE,168,5.1,6.5,78,0.00,,,0.00,WUHU216HW,2013-03-05 15:41:00,
2013-03-05 10:42:00,55.8,49.0,29.75,SSE,168,5.1,6.5,78,0.00,,,0.00,WUHU216HW,2013-03-05 15:42:00,
2013-03-05 10:44:00,56.0,49.5,29.75,SE,135,6.7,6.7,79,0.00,,,0.00,WUHU216HW,2013-03-05 15:44:00,
2013-03-05 10:45:00,56.0,49.5,29.75,SE,135,6.7,6.7,79,0.00,,,0.00,WUHU216HW,2013-03-05 15:45:00,
2013-03-05 10:46:00,56.2,49.3,29.74,SSE,158,5.4,6.7,78,0.00,,,0.00,WUHU216HW,2013-03-05 15:46:00,
2013-03-05 10:47:00,56.2,49.3,29.75,SSE,166,4.3,6.7,78,0.00,,,0.00,WUHU216HW,2013-03-05 15:47:00,
2013-03-05 10:50:00,56.3,49.5,29.75,SE,124,3.8,6.7,78,0.00,,,0.00,WUHU216HW,2013-03-05 15:50:00,
2013-03-05 10:52:00,56.3,49.5,29.75,ESE,123,3.5,6.7,78,0.00,,,0.00,WUHU216HW,2013-03-05 15:52:00,
2013-03-05 10:53:00,56.5,49.3,29.75,SSE,158,3.3,6.7,77,0.00,,,0.00,WUHU216HW,2013-03-05 15:53:00,
2013-03-05 10:57:00,56.5,49.3,29.74,SSW,203,4.0,5.4,77,0.00,,,0.00,WUHU216HW,2013-03-05 15:57:00,
2013-03-05 10:59:00,56.5,49.3,29.74,West,270,4.5,4.7,77,0.00,,,0.00,WUHU216HW,2013-03-05 15:59:00,
2013-03-05 11:02:00,56.5,49.3,29.74,ESE,113,4.0,7.6,77,0.00,,,0.00,WUHU216HW,2013-03-05 16:02:00,
2013-03-05 11:03:00,56.5,49.3,29.74,SSE,150,3.5,7.6,77,0.00,,,0.00,WUHU216HW,2013-03-05 16:03:00,
2013-03-05 11:05:00,56.5,49.3,29.74,SSE,147,2.8,7.6,77,0.00,,,0.00,WUHU216HW,2013-03-05 16:05:00,
2013-03-05 11:08:00,56.5,49.3,29.74,South,170,5.3,7.6,77,0.00,,,0.00,WUHU216HW,2013-03-05 16:08:00,
2013-03-05 11:10:00,56.3,49.1,29.74,South,170,4.6,5.8,77,0.00,,,0.00,WUHU216HW,2013-03-05 16:10:00,
2013-03-05 11:14:00,56.2,49.0,29.75,South,180,4.0,5.8,77,0.00,,,0.00,WUHU216HW,2013-03-05 16:14:00,
2013-03-05 11:18:00,56.2,49.0,29.75,ESE,113,6.3,6.3,77,0.00,,,0.00,WUHU216HW,2013-03-05 16:18:00,
2013-03-05 11:19:00,56.0,48.8,29.75,ESE,121,5.2,6.3,77,0.00,,,0.00,WUHU216HW,2013-03-05 16:19:00,
2013-03-05 11:20:00,56.0,48.8,29.75,ESE,121,5.2,6.3,77,0.00,,,0.00,WUHU216HW,2013-03-05 16:20:00,
2013-03-05 11:21:00,55.8,48.6,29.74,SSE,166,3.2,6.3,77,0.00,,,0.00,WUHU216HW,2013-03-05 16:21:00,
2013-03-05 11:23:00,55.8,49.0,29.74,SE,132,1.8,6.3,78,0.00,,,0.00,WUHU216HW,2013-03-05 16:23:00,
2013-03-05 11:24:00,55.8,49.0,29.74,South,180,1.1,6.3,78,0.00,,,0.00,WUHU216HW,2013-03-05 16:24:00,
2013-03-05 11:26:00,55.8,49.0,29.74,South,180,3.4,6.3,78,0.00,,,0.00,WUHU216HW,2013-03-05 16:26:00,
2013-03-05 11:29:00,55.8,49.0,29.73,South,180,2.4,4.3,78,0.00,,,0.00,WUHU216HW,2013-03-05 16:29:00,
2013-03-05 11:30:00,55.8,49.0,29.73,South,180,2.4,3.6,78,0.00,,,0.00,WUHU216HW,2013-03-05 16:30:00,
2013-03-05 11:31:00,55.8,49.0,29.73,SE,135,3.7,4.7,78,0.00,,,0.00,WUHU216HW,2013-03-05 16:31:00,
2013-03-05 11:32:00,55.8,49.0,29.73,SE,135,3.7,4.7,78,0.00,,,0.00,WUHU216HW,2013-03-05 16:32:00,
2013-03-05 11:34:00,55.8,49.0,29.73,SSE,164,3.5,6.9,78,0.00,,,0.00,WUHU216HW,2013-03-05 16:34:00,
2013-03-05 11:36:00,56.0,49.1,29.73,SE,135,4.5,6.9,78,0.00,,,0.00,WUHU216HW,2013-03-05 16:36:00,
2013-03-05 11:39:00,56.2,49.3,29.73,South,173,4.3,6.9,78,0.00,,,0.00,WUHU216HW,2013-03-05 16:39:00,
2013-03-05 11:40:00,56.3,49.5,29.73,SE,135,3.8,6.9,78,0.00,,,0.00,WUHU216HW,2013-03-05 16:40:00,
2013-03-05 11:41:00,56.3,49.5,29.73,SE,144,3.2,6.9,78,0.00,,,0.00,WUHU216HW,2013-03-05 16:41:00,
2013-03-05 11:42:00,56.3,49.5,29.73,SE,144,3.2,5.6,78,0.00,,,0.00,WUHU216HW,2013-03-05 16:42:00,
2013-03-05 11:44:00,56.5,49.7,29.73,SSE,158,3.8,5.6,78,0.00,,,0.00,WUHU216HW,2013-03-05 16:44:00,
2013-03-05 11:46:00,56.7,49.9,29.73,SSW,203,3.1,5.6,78,0.00,,,0.00,WUHU216HW,2013-03-05 16:46:00,
2013-03-05 11:47:00,56.9,49.7,29.73,SSW,211,2.5,4.5,77,0.00,,,0.00,WUHU216HW,2013-03-05 16:47:00,
2013-03-05 11:49:00,56.9,49.7,29.73,South,170,3.0,4.5,77,0.00,,,0.00,WUHU216HW,2013-03-05 16:49:00,
2013-03-05 11:51:00,57.1,49.9,29.72,SSE,158,2.7,4.5,77,0.00,,,0.00,WUHU216HW,2013-03-05 16:51:00,
2013-03-05 11:53:00,57.1,49.9,29.73,South,180,2.9,4.5,77,0.00,,,0.00,WUHU216HW,2013-03-05 16:53:00,
2013-03-05 11:55:00,57.1,49.9,29.72,SSE,158,4.7,4.7,77,0.00,,,0.00,WUHU216HW,2013-03-05 16:55:00,
2013-03-05 11:56:00,57.2,50.0,29.72,SE,135,3.7,4.9,77,0.00,,,0.00,WUHU216HW,2013-03-05 16:56:00,
2013-03-05 11:58:00,57.2,50.0,29.72,SE,135,2.3,4.9,77,0.00,,,0.00,WUHU216HW,2013-03-05 16:58:00,
2013-03-05 12:03:00,57.4,49.9,29.72,SSW,193,3.1,4.9,76,0.00,,,0.00,WUHU216HW,2013-03-05 17:03:00,
2013-03-05 12:04:00,57.4,49.9,29.72,SSE,158,3.4,4.9,76,0.00,,,0.00,WUHU216HW,2013-03-05 17:04:00,
2013-03-05 12:08:00,57.6,50.4,29.71,SSE,158,4.0,4.7,77,0.00,,,0.00,WUHU216HW,2013-03-05 17:08:00,
2013-03-05 12:09:00,57.6,50.4,29.71,SE,137,3.7,4.7,77,0.00,,,0.00,WUHU216HW,2013-03-05 17:09:00,
2013-03-05 12:14:00,57.4,49.9,29.71,SE,135,3.1,6.3,76,0.00,,,0.00,WUHU216HW,2013-03-05 17:14:00,
2013-03-05 12:15:00,57.4,49.9,29.71,SE,135,3.1,6.3,76,0.00,,,0.00,WUHU216HW,2013-03-05 17:15:00,
2013-03-05 12:19:00,57.2,50.0,29.71,SSW,203,4.0,6.3,77,0.00,,,0.00,WUHU216HW,2013-03-05 17:19:00,
2013-03-05 12:20:00,57.4,49.9,29.71,SSW,203,3.8,4.3,76,0.00,,,0.00,WUHU216HW,2013-03-05 17:20:00,
2013-03-05 12:21:00,57.2,50.0,29.71,South,183,3.3,4.3,77,0.00,,,0.00,WUHU216HW,2013-03-05 17:21:00,
2013-03-05 12:25:00,57.2,50.0,29.70,South,180,1.8,4.0,77,0.00,,,0.00,WUHU216HW,2013-03-05 17:25:00,
2013-03-05 12:26:00,57.2,50.0,29.70,South,180,1.8,4.0,77,0.00,,,0.00,WUHU216HW,2013-03-05 17:26:00,
2013-03-05 12:27:00,57.2,50.0,29.70,South,180,1.8,4.0,77,0.00,,,0.00,WUHU216HW,2013-03-05 17:27:00,
2013-03-05 12:31:00,57.2,50.0,29.70,South,180,1.8,2.2,77,0.00,,,0.00,WUHU216HW,2013-03-05 17:31:00,
2013-03-05 12:32:00,57.2,50.0,29.70,South,180,1.8,2.2,77,0.00,,,0.00,WUHU216HW,2013-03-05 17:32:00,
2013-03-05 12:36:00,63.7,43.6,29.68,ESE,113,3.4,3.4,48,0.00,,,0.00,WUHU216HW,2013-03-05 17:36:00,
2013-03-05 12:37:00,63.7,43.6,29.68,SSE,158,3.4,3.4,48,0.00,,,0.00,WUHU216HW,2013-03-05 17:37:00,
2013-03-05 12:39:00,62.6,43.7,29.68,SSE,158,3.4,3.4,50,0.00,,,0.00,WUHU216HW,2013-03-05 17:39:00,
2013-03-05 12:42:00,61.6,43.7,29.68,SSE,158,3.4,3.4,52,0.01,,,0.01,WUHU216HW,2013-03-05 17:42:00,
2013-03-05 12:43:00,61.4,44.1,29.67,SE,135,4.0,4.0,53,0.01,,,0.01,WUHU216HW,2013-03-05 17:43:00,
2013-03-05 12:44:00,61.2,44.4,29.67,SSE,160,3.5,4.3,54,0.01,,,0.01,WUHU216HW,2013-03-05 17:44:00,
2013-03-05 12:47:00,60.5,44.7,29.67,SSW,203,2.2,4.3,56,0.01,,,0.01,WUHU216HW,2013-03-05 17:47:00,
2013-03-05 12:48:00,60.3,45.0,29.67,SSW,203,2.5,4.3,57,0.01,,,0.01,WUHU216HW,2013-03-05 17:48:00,
2013-03-05 12:49:00,60.1,44.8,29.67,SSE,158,4.7,4.7,57,0.01,,,0.01,WUHU216HW,2013-03-05 17:49:00,
2013-03-05 12:50:00,60.1,44.8,29.67,SSE,158,6.3,6.3,57,0.01,,,0.01,WUHU216HW,2013-03-05 17:50:00,
2013-03-05 12:53:00,59.8,45.9,29.67,South,180,4.0,7.6,60,0.01,,,0.01,WUHU216HW,2013-03-05 17:53:00,
2013-03-05 12:54:00,59.8,45.5,29.67,South,180,4.5,7.6,59,0.01,,,0.01,WUHU216HW,2013-03-05 17:54:00,
2013-03-05 12:55:00,59.8,46.4,29.67,SSE,164,3.0,7.6,61,0.01,,,0.01,WUHU216HW,2013-03-05 17:55:00,
2013-03-05 12:58:00,59.6,46.5,29.66,South,191,2.3,7.6,62,0.01,,,0.01,WUHU216HW,2013-03-05 17:58:00,
2013-03-05 12:59:00,59.6,46.5,29.66,SSW,203,2.5,7.6,62,0.01,,,0.01,WUHU216HW,2013-03-05 17:59:00,
2013-03-05 13:00:00,59.6,46.5,29.66,SSW,197,2.3,7.6,62,0.01,,,0.01,WUHU216HW,2013-03-05 18:00:00,
2013-03-05 13:01:00,59.6,46.5,29.66,ESE,113,2.5,5.4,62,0.01,,,0.01,WUHU216HW,2013-03-05 18:01:00,
2013-03-05 13:04:00,59.4,46.8,29.66,SSE,158,4.7,6.9,63,0.01,,,0.01,WUHU216HW,2013-03-05 18:04:00,
2013-03-05 13:06:00,59.4,47.2,29.66,SE,135,5.1,6.9,64,0.01,,,0.01,WUHU216HW,2013-03-05 18:06:00,
2013-03-05 13:09:00,59.4,47.6,29.65,SE,135,7.2,7.2,65,0.01,,,0.01,WUHU216HW,2013-03-05 18:09:00,
2013-03-05 13:10:00,59.4,48.1,29.65,SE,135,6.3,9.2,66,0.01,,,0.01,WUHU216HW,2013-03-05 18:10:00,
2013-03-05 13:11:00,59.4,47.6,29.64,SSE,148,4.7,9.2,65,0.01,,,0.01,WUHU216HW,2013-03-05 18:11:00,
2013-03-05 13:14:00,59.6,48.3,29.64,SSE,158,6.3,9.2,66,0.01,,,0.01,WUHU216HW,2013-03-05 18:14:00,
2013-03-05 13:16:00,59.6,47.8,29.64,South,188,4.3,9.2,65,0.01,,,0.01,WUHU216HW,2013-03-05 18:16:00,
2013-03-05 13:17:00,59.8,48.4,29.64,East,90,3.4,9.2,66,0.01,,,0.01,WUHU216HW,2013-03-05 18:17:00,
2013-03-05 13:20:00,59.8,48.4,29.63,SSW,203,7.2,7.2,66,0.01,,,0.01,WUHU216HW,2013-03-05 18:20:00,
2013-03-05 13:22:00,59.9,49.8,29.63,SSE,158,7.2,9.2,69,0.01,,,0.01,WUHU216HW,2013-03-05 18:22:00,
2013-03-05 13:23:00,60.1,49.1,29.63,South,171,5.1,9.2,67,0.01,,,0.01,WUHU216HW,2013-03-05 18:23:00,
2013-03-05 13:26:00,60.7,49.7,29.63,South,181,4.0,9.2,67,0.01,,,0.01,WUHU216HW,2013-03-05 18:26:00,
2013-03-05 13:27:00,60.5,49.5,29.63,SSW,203,4.7,9.2,67,0.01,,,0.01,WUHU216HW,2013-03-05 18:27:00,
2013-03-05 13:28:00,60.7,49.7,29.63,SSW,193,5.0,9.2,67,0.01,,,0.01,WUHU216HW,2013-03-05 18:28:00,
2013-03-05 13:30:00,60.8,49.9,29.63,SSW,209,3.5,9.2,67,0.01,,,0.01,WUHU216HW,2013-03-05 18:30:00,
2013-03-05 13:32:00,60.7,49.3,29.63,South,180,6.9,8.9,66,0.01,,,0.01,WUHU216HW,2013-03-05 18:32:00,
2013-03-05 13:33:00,60.7,49.3,29.63,WSW,248,6.5,8.9,66,0.01,,,0.01,WUHU216HW,2013-03-05 18:33:00,
2013-03-05 13:35:00,60.8,49.5,29.63,South,180,3.6,6.9,66,0.01,,,0.01,WUHU216HW,2013-03-05 18:35:00,
2013-03-05 13:38:00,60.8,49.9,29.62,South,172,4.6,8.5,67,0.01,,,0.01,WUHU216HW,2013-03-05 18:38:00,
2013-03-05 13:40:00,60.7,50.1,29.62,South,189,5.7,10.3,68,0.00,,,0.01,WUHU216HW,2013-03-05 18:40:00,
2013-03-05 13:42:00,60.7,50.1,29.61,SSE,166,2.8,10.3,68,0.00,,,0.01,WUHU216HW,2013-03-05 18:42:00,
2013-03-05 13:43:00,60.7,50.1,29.61,SW,225,5.4,10.3,68,0.00,,,0.01,WUHU216HW,2013-03-05 18:43:00,
2013-03-05 13:44:00,60.8,49.9,29.61,South,175,4.2,10.3,67,0.00,,,0.01,WUHU216HW,2013-03-05 18:44:00,
2013-03-05 13:45:00,60.7,50.1,29.61,SE,135,6.0,10.3,68,0.00,,,0.01,WUHU216HW,2013-03-05 18:45:00,
2013-03-05 13:48:00,60.7,50.1,29.60,SSW,203,4.9,10.3,68,0.00,,,0.01,WUHU216HW,2013-03-05 18:48:00,
2013-03-05 13:49:00,60.7,50.1,29.60,South,180,4.3,7.6,68,0.00,,,0.01,WUHU216HW,2013-03-05 18:49:00,
2013-03-05 13:50:00,60.7,50.1,29.60,SW,225,6.7,7.6,68,0.00,,,0.01,WUHU216HW,2013-03-05 18:50:00,
2013-03-05 13:51:00,60.7,50.1,29.60,South,191,5.7,8.5,68,0.00,,,0.01,WUHU216HW,2013-03-05 18:51:00,
2013-03-05 13:55:00,60.7,50.5,29.60,South,186,5.3,8.5,69,0.00,,,0.01,WUHU216HW,2013-03-05 18:55:00,
2013-03-05 13:56:00,60.5,50.3,29.60,SSE,154,4.1,8.5,69,0.00,,,0.01,WUHU216HW,2013-03-05 18:56:00,
2013-03-05 14:00:00,60.5,50.0,29.60,South,187,3.4,8.5,68,0.00,,,0.01,WUHU216HW,2013-03-05 19:00:00,
2013-03-05 14:01:00,60.5,50.3,29.60,WNW,293,5.8,7.8,69,0.00,,,0.01,WUHU216HW,2013-03-05 19:01:00,
2013-03-05 14:04:00,60.5,50.0,29.59,South,180,6.5,8.9,68,0.00,,,0.01,WUHU216HW,2013-03-05 19:04:00,
2013-03-05 14:06:00,60.3,49.8,29.59,South,173,3.1,8.9,68,0.00,,,0.01,WUHU216HW,2013-03-05 19:06:00,
2013-03-05 14:09:00,60.5,50.8,29.58,SSE,158,6.3,8.9,70,0.00,,,0.01,WUHU216HW,2013-03-05 19:09:00,
2013-03-05 14:11:00,60.3,50.1,29.58,SSW,204,4.5,9.4,69,0.00,,,0.01,WUHU216HW,2013-03-05 19:11:00,
2013-03-05 14:13:00,60.3,50.6,29.58,SE,138,4.0,9.4,70,0.00,,,0.01,WUHU216HW,2013-03-05 19:13:00,
2013-03-05 14:14:00,60.3,50.1,29.58,South,188,3.5,9.4,69,0.00,,,0.01,WUHU216HW,2013-03-05 19:14:00,
2013-03-05 14:16:00,60.3,50.6,29.58,SW,225,5.4,9.4,70,0.00,,,0.01,WUHU216HW,2013-03-05 19:16:00,
2013-03-05 14:18:00,60.3,50.6,29.58,South,184,5.0,9.4,70,0.00,,,0.01,WUHU216HW,2013-03-05 19:18:00,
2013-03-05 14:19:00,60.3,50.6,29.58,South,191,5.8,10.3,70,0.00,,,0.01,WUHU216HW,2013-03-05 19:19:00,
2013-03-05 14:20:00,60.1,50.4,29.57,SSE,158,6.3,10.3,70,0.00,,,0.01,WUHU216HW,2013-03-05 19:20:00,
2013-03-05 14:22:00,60.1,50.0,29.56,SSE,158,5.6,10.3,69,0.00,,,0.01,WUHU216HW,2013-03-05 19:22:00,
2013-03-05 14:23:00,60.1,50.0,29.56,SSE,163,4.3,10.3,69,0.00,,,0.01,WUHU216HW,2013-03-05 19:23:00,
2013-03-05 14:24:00,60.1,50.0,29.57,SSW,206,3.8,10.3,69,0.00,,,0.01,WUHU216HW,2013-03-05 19:24:00,
2013-03-05 14:26:00,60.1,50.8,29.57,SSW,204,5.2,10.3,71,0.00,,,0.01,WUHU216HW,2013-03-05 19:26:00,
2013-03-05 14:28:00,60.1,50.4,29.57,SSW,211,3.0,10.3,70,0.00,,,0.01,WUHU216HW,2013-03-05 19:28:00,
2013-03-05 14:29:00,59.9,50.6,29.57,SW,225,4.3,6.5,71,0.00,,,0.01,WUHU216HW,2013-03-05 19:29:00,
2013-03-05 14:31:00,59.8,50.4,29.56,SSW,210,4.4,6.9,71,0.00,,,0.01,WUHU216HW,2013-03-05 19:31:00,
2013-03-05 14:33:00,59.6,50.6,29.57,South,181,4.0,6.9,72,0.00,,,0.01,WUHU216HW,2013-03-05 19:33:00,
2013-03-05 14:34:00,59.4,50.8,29.57,SSW,203,3.8,6.9,73,0.00,,,0.01,WUHU216HW,2013-03-05 19:34:00,
2013-03-05 14:36:00,59.4,50.8,29.58,SW,227,3.4,6.9,73,0.00,,,0.01,WUHU216HW,2013-03-05 19:36:00,
2013-03-05 14:37:00,59.2,50.6,29.57,South,180,3.1,6.9,73,0.01,,,0.02,WUHU216HW,2013-03-05 19:37:00,
2013-03-05 14:38:00,59.0,50.4,29.54,SE,135,4.7,6.9,73,0.03,,,0.04,WUHU216HW,2013-03-05 19:38:00,
2013-03-05 14:39:00,59.0,50.8,29.54,SE,135,5.4,6.9,74,0.04,,,0.05,WUHU216HW,2013-03-05 19:39:00,
2013-03-05 14:41:00,58.7,50.8,29.54,SE,142,3.7,6.9,75,0.04,,,0.05,WUHU216HW,2013-03-05 19:41:00,
2013-03-05 14:42:00,58.7,50.8,29.54,SSE,158,4.0,5.8,75,0.04,,,0.05,WUHU216HW,2013-03-05 19:42:00,
2013-03-05 14:43:00,58.5,50.6,29.55,SE,135,4.0,5.8,75,0.04,,,0.05,WUHU216HW,2013-03-05 19:43:00,
2013-03-05 14:44:00,58.5,50.6,29.55,South,177,3.5,5.8,75,0.04,,,0.05,WUHU216HW,2013-03-05 19:44:00,
2013-03-05 14:46:00,58.3,50.4,29.55,SW,215,1.3,5.4,75,0.04,,,0.05,WUHU216HW,2013-03-05 19:46:00,
2013-03-05 14:47:00,58.3,50.4,29.55,SE,135,0.9,5.4,75,0.04,,,0.05,WUHU216HW,2013-03-05 19:47:00,
2013-03-05 14:49:00,58.1,49.9,29.55,SSE,158,2.5,5.4,74,0.04,,,0.05,WUHU216HW,2013-03-05 19:49:00,
2013-03-05 14:50:00,58.0,50.0,29.54,SE,135,2.5,4.7,75,0.04,,,0.05,WUHU216HW,2013-03-05 19:50:00,
2013-03-05 14:51:00,58.0,50.4,29.53,SE,126,2.2,4.7,76,0.04,,,0.05,WUHU216HW,2013-03-05 19:51:00,
2013-03-05 14:54:00,57.8,50.2,29.54,South,183,0.9,3.1,76,0.04,,,0.05,WUHU216HW,2013-03-05 19:54:00,
2013-03-05 14:56:00,57.8,50.2,29.54,SW,225,1.8,3.1,76,0.04,,,0.05,WUHU216HW,2013-03-05 19:56:00,
2013-03-05 14:59:00,57.6,50.0,29.55,SW,225,0.9,2.5,76,0.05,,,0.06,WUHU216HW,2013-03-05 19:59:00,
2013-03-05 15:00:00,57.6,50.0,29.55,SW,225,1.8,2.5,76,0.05,,,0.06,WUHU216HW,2013-03-05 20:00:00,
2013-03-05 15:01:00,57.4,49.9,29.55,SW,214,1.1,1.8,76,0.05,,,0.06,WUHU216HW,2013-03-05 20:01:00,
2013-03-05 15:02:00,57.4,49.9,29.55,SSE,158,3.1,3.1,76,0.06,,,0.07,WUHU216HW,2013-03-05 20:02:00,
2013-03-05 15:05:00,57.2,49.7,29.54,ESE,113,2.5,3.1,76,0.08,,,0.09,WUHU216HW,2013-03-05 20:05:00,
2013-03-05 15:06:00,57.2,49.7,29.53,SE,124,2.1,3.1,76,0.08,,,0.09,WUHU216HW,2013-03-05 20:06:00,
2013-03-05 15:08:00,57.2,50.0,29.53,SSE,162,2.1,3.1,77,0.08,,,0.09,WUHU216HW,2013-03-05 20:08:00,
2013-03-05 15:10:00,57.2,50.0,29.53,SSW,195,2.2,3.8,77,0.08,,,0.09,WUHU216HW,2013-03-05 20:10:00,
2013-03-05 15:11:00,57.2,50.4,29.53,SSW,203,3.6,3.8,78,0.08,,,0.09,WUHU216HW,2013-03-05 20:11:00,
2013-03-05 15:13:00,57.1,50.2,29.53,South,180,2.7,3.8,78,0.09,,,0.10,WUHU216HW,2013-03-05 20:13:00,
2013-03-05 15:15:00,57.1,50.2,29.53,South,180,3.4,3.8,78,0.10,,,0.11,WUHU216HW,2013-03-05 20:15:00,
2013-03-05 15:17:00,57.1,50.2,29.53,SSW,194,1.7,3.8,78,0.12,,,0.13,WUHU216HW,2013-03-05 20:17:00,
2013-03-05 15:19:00,56.9,50.0,29.53,SSW,212,1.7,3.8,78,0.13,,,0.14,WUHU216HW,2013-03-05 20:19:00,
2013-03-05 15:20:00,56.9,50.4,29.53,SW,215,1.0,3.6,79,0.13,,,0.14,WUHU216HW,2013-03-05 20:20:00,
2013-03-05 15:21:00,56.9,50.4,29.53,WNW,303,0.7,3.6,79,0.13,,,0.14,WUHU216HW,2013-03-05 20:21:00,
2013-03-05 15:22:00,56.9,50.4,29.53,WSW,248,3.1,3.4,79,0.14,,,0.15,WUHU216HW,2013-03-05 20:22:00,
2013-03-05 15:24:00,56.7,51.0,29.55,WNW,293,2.0,3.4,81,0.14,,,0.15,WUHU216HW,2013-03-05 20:24:00,
2013-03-05 15:25:00,56.9,51.8,29.55,WNW,293,2.7,3.1,83,0.14,,,0.15,WUHU216HW,2013-03-05 20:25:00,
2013-03-05 15:26:00,56.7,51.2,29.58,NW,315,4.7,4.7,82,0.14,,,0.15,WUHU216HW,2013-03-05 20:26:00,
2013-03-05 15:27:00,56.7,52.2,29.54,West,270,7.6,7.6,85,0.15,,,0.16,WUHU216HW,2013-03-05 20:27:00,
2013-03-05 15:29:00,56.7,52.6,29.61,NW,315,8.5,9.6,86,0.34,,,0.35,WUHU216HW,2013-03-05 20:29:00,
2013-03-05 15:30:00,56.5,51.7,29.61,WNW,293,11.4,18.6,84,0.38,,,0.39,WUHU216HW,2013-03-05 20:30:00,
2013-03-05 15:32:00,55.8,50.3,29.58,WNW,303,7.9,18.6,82,0.43,,,0.44,WUHU216HW,2013-03-05 20:32:00,
2013-03-05 15:35:00,55.3,49.8,29.58,West,267,3.0,18.6,82,0.45,,,0.46,WUHU216HW,2013-03-05 20:35:00,
2013-03-05 15:36:00,55.3,49.8,29.58,WNW,284,1.7,18.6,82,0.45,,,0.46,WUHU216HW,2013-03-05 20:36:00,
2013-03-05 15:38:00,55.4,50.6,29.58,North,0,3.8,18.6,84,0.43,,,0.47,WUHU216HW,2013-03-05 20:38:00,
2013-03-05 15:41:00,55.8,51.3,29.56,West,270,3.0,7.2,85,0.42,,,0.47,WUHU216HW,2013-03-05 20:41:00,
2013-03-05 15:43:00,56.2,51.3,29.56,West,270,3.1,7.2,84,0.42,,,0.47,WUHU216HW,2013-03-05 20:43:00,
2013-03-05 15:44:00,56.2,51.3,29.56,NW,315,2.7,7.2,84,0.42,,,0.47,WUHU216HW,2013-03-05 20:44:00,
2013-03-05 15:46:00,56.5,51.7,29.56,WNW,300,1.8,7.2,84,0.42,,,0.47,WUHU216HW,2013-03-05 20:46:00,
2013-03-05 15:49:00,56.7,52.2,29.57,West,277,2.0,5.4,85,0.42,,,0.47,WUHU216HW,2013-03-05 20:49:00,
2013-03-05 15:51:00,56.9,52.0,29.58,WSW,249,4.6,6.7,84,0.42,,,0.47,WUHU216HW,2013-03-05 20:51:00,
2013-03-05 15:52:00,56.7,51.8,29.58,WSW,249,4.4,6.7,84,0.42,,,0.47,WUHU216HW,2013-03-05 20:52:00,
2013-03-05 15:54:00,56.7,51.8,29.58,NW,308,2.5,6.7,84,0.42,,,0.47,WUHU216HW,2013-03-05 20:54:00,
2013-03-05 15:56:00,56.5,52.0,29.58,WNW,293,4.5,6.7,85,0.42,,,0.47,WUHU216HW,2013-03-05 20:56:00,
2013-03-05 15:57:00,56.5,52.4,29.58,WSW,248,5.4,6.7,86,0.42,,,0.47,WUHU216HW,2013-03-05 20:57:00,
2013-03-05 16:00:00,56.5,51.7,29.59,WSW,248,6.5,6.7,84,0.41,,,0.47,WUHU216HW,2013-03-05 21:00:00,
2013-03-05 16:01:00,56.5,52.0,29.59,West,263,4.0,6.5,85,0.41,,,0.48,WUHU216HW,2013-03-05 21:01:00,
2013-03-05 16:02:00,56.5,52.0,29.59,NNW,338,4.0,6.5,85,0.41,,,0.48,WUHU216HW,2013-03-05 21:02:00,
2013-03-05 16:03:00,56.3,51.5,29.59,West,270,4.3,7.2,84,0.40,,,0.48,WUHU216HW,2013-03-05 21:03:00,
2013-03-05 16:06:00,56.2,51.3,29.59,WNW,293,4.3,7.2,84,0.39,,,0.48,WUHU216HW,2013-03-05 21:06:00,
2013-03-05 16:07:00,56.0,50.9,29.58,West,280,3.2,7.2,83,0.39,,,0.48,WUHU216HW,2013-03-05 21:07:00,
2013-03-05 16:09:00,56.0,50.9,29.58,WNW,293,2.7,7.2,83,0.39,,,0.48,WUHU216HW,2013-03-05 21:09:00,
2013-03-05 16:11:00,55.8,50.7,29.58,NW,307,2.7,7.2,83,0.39,,,0.48,WUHU216HW,2013-03-05 21:11:00,
2013-03-05 16:12:00,55.8,50.7,29.58,North,0,3.6,7.2,83,0.38,,,0.48,WUHU216HW,2013-03-05 21:12:00,
2013-03-05 16:13:00,55.8,50.7,29.58,WNW,293,4.5,6.3,83,0.38,,,0.48,WUHU216HW,2013-03-05 21:13:00,
2013-03-05 16:15:00,55.8,50.7,29.58,WNW,286,3.7,6.0,83,0.37,,,0.48,WUHU216HW,2013-03-05 21:15:00,
2013-03-05 16:17:00,55.6,50.5,29.58,NW,315,2.5,5.1,83,0.35,,,0.48,WUHU216HW,2013-03-05 21:17:00,
2013-03-05 16:18:00,55.6,50.1,29.58,West,270,3.4,5.1,82,0.35,,,0.48,WUHU216HW,2013-03-05 21:18:00,
2013-03-05 16:20:00,55.6,50.1,29.58,North,0,4.9,6.0,82,0.34,,,0.48,WUHU216HW,2013-03-05 21:20:00,
2013-03-05 16:23:00,55.6,49.9,29.58,West,275,4.6,6.5,81,0.33,,,0.48,WUHU216HW,2013-03-05 21:23:00,
2013-03-05 16:24:00,55.6,49.9,29.58,WNW,282,3.0,6.5,81,0.33,,,0.48,WUHU216HW,2013-03-05 21:24:00,
2013-03-05 16:26:00,55.6,49.9,29.58,West,270,4.5,6.5,81,0.33,,,0.48,WUHU216HW,2013-03-05 21:26:00,
2013-03-05 16:29:00,55.6,49.9,29.58,WNW,293,5.4,6.5,81,0.20,,,0.48,WUHU216HW,2013-03-05 21:29:00,
2013-03-05 16:30:00,55.6,49.9,29.59,WNW,294,3.7,6.5,81,0.13,,,0.48,WUHU216HW,2013-03-05 21:30:00,
2013-03-05 16:31:00,55.4,49.0,29.59,SSE,158,4.0,8.5,79,0.04,,,0.48,WUHU216HW,2013-03-05 21:31:00,
2013-03-05 16:34:00,55.4,49.3,29.59,WNW,299,4.1,8.5,80,0.03,,,0.48,WUHU216HW,2013-03-05 21:34:00,
2013-03-05 16:35:00,55.4,49.3,29.59,WNW,289,3.1,8.5,80,0.02,,,0.48,WUHU216HW,2013-03-05 21:35:00,
2013-03-05 16:36:00,55.4,49.0,29.60,West,271,3.1,8.5,79,0.01,,,0.48,WUHU216HW,2013-03-05 21:36:00,
2013-03-05 16:39:00,55.4,49.0,29.60,North,0,3.1,8.5,79,0.01,,,0.48,WUHU216HW,2013-03-05 21:39:00,
2013-03-05 16:41:00,55.3,48.8,29.60,North,0,2.5,8.5,79,0.01,,,0.48,WUHU216HW,2013-03-05 21:41:00,
2013-03-05 16:42:00,55.3,49.1,29.60,NNE,23,3.8,6.3,80,0.01,,,0.48,WUHU216HW,2013-03-05 21:42:00,
2013-03-05 16:45:00,55.3,48.8,29.60,WSW,248,3.4,6.5,79,0.01,,,0.48,WUHU216HW,2013-03-05 21:45:00,
2013-03-05 16:46:00,55.4,49.0,29.59,WSW,250,3.5,6.5,79,0.01,,,0.48,WUHU216HW,2013-03-05 21:46:00,
2013-03-05 16:47:00,55.4,49.0,29.60,SSW,203,4.5,6.5,79,0.01,,,0.48,WUHU216HW,2013-03-05 21:47:00,
2013-03-05 16:48:00,55.6,49.5,29.60,WNW,293,10.1,10.1,80,0.01,,,0.48,WUHU216HW,2013-03-05 21:48:00,
2013-03-05 16:50:00,55.8,49.3,29.60,WNW,295,4.6,10.1,79,0.01,,,0.48,WUHU216HW,2013-03-05 21:50:00,
2013-03-05 16:52:00,56.0,49.1,29.60,SW,225,6.0,10.1,78,0.01,,,0.48,WUHU216HW,2013-03-05 21:52:00,
2013-03-05 16:55:00,55.8,48.3,29.60,SW,232,4.7,10.1,76,0.01,,,0.48,WUHU216HW,2013-03-05 21:55:00,
2013-03-05 16:56:00,55.8,48.3,29.60,WNW,283,5.7,10.5,76,0.01,,,0.48,WUHU216HW,2013-03-05 21:56:00,
2013-03-05 16:57:00,55.8,48.0,29.60,WNW,288,5.4,10.5,75,0.01,,,0.48,WUHU216HW,2013-03-05 21:57:00,
2013-03-05 16:58:00,55.8,48.0,29.60,SE,135,6.3,10.5,75,0.01,,,0.48,WUHU216HW,2013-03-05 21:58:00,
2013-03-05 17:00:00,55.8,47.6,29.60,WNW,293,5.4,10.5,74,0.01,,,0.48,WUHU216HW,2013-03-05 22:00:00,
2013-03-05 17:05:00,55.4,47.3,29.61,West,262,3.7,10.5,74,0.00,,,0.48,WUHU216HW,2013-03-05 22:05:00,
2013-03-05 17:11:00,55.4,46.9,29.61,WNW,293,8.7,8.7,73,0.00,,,0.48,WUHU216HW,2013-03-05 22:11:00,
2013-03-05 17:58:00,51.8,41.2,29.67,NW,315,7.6,7.6,67,0.00,,,0.48,WUHU216HW,2013-03-05 22:58:00,
2013-03-05 17:59:00,51.7,41.0,29.67,WNW,298,9.8,11.4,67,0.00,,,0.48,WUHU216HW,2013-03-05 22:59:00,
2013-03-05 18:03:00,51.1,41.0,29.68,North,0,9.2,11.6,68,0.00,,,0.48,WUHU216HW,2013-03-05 23:03:00,
2013-03-05 18:04:00,51.1,41.0,29.68,North,0,13.6,13.6,68,0.00,,,0.48,WUHU216HW,2013-03-05 23:04:00,
2013-03-05 18:05:00,50.9,40.8,29.68,NW,320,7.4,13.6,68,0.00,,,0.48,WUHU216HW,2013-03-05 23:05:00,
2013-03-05 18:09:00,50.8,40.6,29.68,WNW,293,5.8,13.6,68,0.00,,,0.48,WUHU216HW,2013-03-05 23:09:00,
2013-03-05 18:10:00,50.6,40.4,29.69,WNW,293,9.2,13.6,68,0.00,,,0.48,WUHU216HW,2013-03-05 23:10:00,
2013-03-05 18:11:00,50.4,40.2,29.69,WNW,293,9.2,13.6,68,0.00,,,0.48,WUHU216HW,2013-03-05 23:11:00,
2013-03-05 18:13:00,50.4,40.2,29.69,NW,305,7.5,13.6,68,0.00,,,0.48,WUHU216HW,2013-03-05 23:13:00,
2013-03-05 18:14:00,50.2,40.1,29.69,WNW,293,7.3,13.6,68,0.00,,,0.48,WUHU216HW,2013-03-05 23:14:00,
2013-03-05 18:15:00,50.0,39.9,29.69,WNW,302,7.0,13.6,68,0.00,,,0.48,WUHU216HW,2013-03-05 23:15:00,
2013-03-05 18:16:00,50.0,39.9,29.69,WNW,298,5.9,13.6,68,0.00,,,0.48,WUHU216HW,2013-03-05 23:16:00,
2013-03-05 18:18:00,49.9,39.7,29.70,NW,307,5.2,13.6,68,0.00,,,0.48,WUHU216HW,2013-03-05 23:18:00,
2013-03-05 18:20:00,49.9,39.7,29.70,WNW,293,6.7,13.6,68,0.00,,,0.48,WUHU216HW,2013-03-05 23:20:00,
2013-03-05 18:21:00,49.7,39.5,29.70,WNW,293,6.4,13.6,68,0.00,,,0.48,WUHU216HW,2013-03-05 23:21:00,
2013-03-05 18:25:00,49.5,39.8,29.70,NW,305,5.1,9.6,69,0.00,,,0.48,WUHU216HW,2013-03-05 23:25:00,
2013-03-05 18:27:00,49.3,39.6,29.71,NW,315,12.1,12.1,69,0.00,,,0.48,WUHU216HW,2013-03-05 23:27:00,
2013-03-05 18:30:00,49.0,39.3,29.71,NW,322,5.0,12.1,69,0.00,,,0.48,WUHU216HW,2013-03-05 23:30:00,
2013-03-05 18:31:00,48.8,39.4,29.71,West,275,6.2,12.1,70,0.00,,,0.48,WUHU216HW,2013-03-05 23:31:00,
2013-03-05 18:32:00,48.8,39.4,29.72,West,269,6.1,12.1,70,0.00,,,0.48,WUHU216HW,2013-03-05 23:32:00,
2013-03-05 18:36:00,48.2,39.3,29.72,North,0,7.8,12.1,71,0.00,,,0.48,WUHU216HW,2013-03-05 23:36:00,
2013-03-05 18:37:00,47.9,38.9,29.73,NW,307,6.2,12.1,71,0.00,,,0.48,WUHU216HW,2013-03-05 23:37:00,
2013-03-05 18:38:00,47.9,38.9,29.73,WNW,282,6.5,11.4,71,0.00,,,0.48,WUHU216HW,2013-03-05 23:38:00,
2013-03-05 18:41:00,47.5,38.9,29.73,WNW,285,6.9,15.7,72,0.00,,,0.48,WUHU216HW,2013-03-05 23:41:00,
2013-03-05 18:42:00,47.5,38.6,29.73,WNW,297,3.9,15.7,71,0.00,,,0.48,WUHU216HW,2013-03-05 23:42:00,
2013-03-05 18:43:00,47.3,38.8,29.73,North,0,3.6,15.7,72,0.00,,,0.48,WUHU216HW,2013-03-05 23:43:00,
2013-03-05 18:44:00,47.3,38.8,29.73,WNW,293,5.4,15.7,72,0.00,,,0.48,WUHU216HW,2013-03-05 23:44:00,
2013-03-05 18:47:00,47.2,38.3,29.74,WNW,291,5.0,15.7,71,0.00,,,0.48,WUHU216HW,2013-03-05 23:47:00,
2013-03-05 18:49:00,47.0,38.4,29.74,North,0,6.3,15.7,72,0.00,,,0.48,WUHU216HW,2013-03-05 23:49:00,
2013-03-05 18:50:00,46.8,38.3,29.74,WNW,293,7.4,12.8,72,0.00,,,0.48,WUHU216HW,2013-03-05 23:50:00,
2013-03-05 18:52:00,46.8,37.9,29.74,WNW,291,6.6,12.8,71,0.00,,,0.48,WUHU216HW,2013-03-05 23:52:00,
2013-03-05 18:53:00,46.4,37.3,29.74,NW,308,8.2,13.6,70,0.00,,,0.48,WUHU216HW,2013-03-05 23:53:00,
2013-03-05 18:54:00,46.4,37.3,29.75,WNW,292,6.8,13.6,70,0.00,,,0.48,WUHU216HW,2013-03-05 23:54:00,
2013-03-05 18:55:00,46.4,37.3,29.75,WNW,299,5.6,13.6,70,0.00,,,0.48,WUHU216HW,2013-03-05 23:55:00,
2013-03-05 18:57:00,46.4,37.6,29.75,NNW,338,8.5,13.6,71,0.00,,,0.48,WUHU216HW,2013-03-05 23:57:00,
2013-03-05 18:59:00,46.1,37.6,29.75,North,0,8.7,13.6,72,0.00,,,0.48,WUHU216HW,2013-03-05 23:59:00,
2013-03-05 19:00:00,45.9,37.5,29.76,WSW,248,6.5,13.6,72,0.00,,,0.48,WUHU216HW,2013-03-06 00:00:00,
2013-03-05 19:01:00,45.9,37.5,29.76,WNW,299,4.6,13.6,72,0.00,,,0.48,WUHU216HW,2013-03-06 00:01:00,
2013-03-05 19:02:00,45.7,37.5,29.76,North,0,11.4,13.6,73,0.00,,,0.48,WUHU216HW,2013-03-06 00:02:00,
2013-03-05 19:04:00,45.4,36.9,29.77,West,270,8.5,11.4,72,0.00,,,0.48,WUHU216HW,2013-03-06 00:04:00,
2013-03-05 19:06:00,45.0,36.2,29.77,NNW,338,12.1,12.1,71,0.00,,,0.48,WUHU216HW,2013-03-06 00:06:00,
2013-03-05 19:07:00,45.0,35.8,29.77,NW,322,8.4,12.1,70,0.00,,,0.48,WUHU216HW,2013-03-06 00:07:00,
2013-03-05 19:10:00,44.3,34.7,29.78,WNW,293,9.8,14.1,69,0.00,,,0.48,WUHU216HW,2013-03-06 00:10:00,
2013-03-05 19:12:00,43.9,34.8,29.78,WNW,302,5.1,14.1,70,0.00,,,0.48,WUHU216HW,2013-03-06 00:12:00,
2013-03-05 19:13:00,43.9,34.8,29.78,NW,315,9.8,14.1,70,0.00,,,0.48,WUHU216HW,2013-03-06 00:13:00,
2013-03-05 19:16:00,43.6,34.5,29.78,NW,315,11.6,14.1,70,0.00,,,0.48,WUHU216HW,2013-03-06 00:16:00,
2013-03-05 19:18:00,43.2,34.2,29.79,NW,323,8.8,15.7,70,0.00,,,0.48,WUHU216HW,2013-03-06 00:18:00,
2013-03-05 19:19:00,43.0,34.3,29.79,NW,317,7.2,15.7,71,0.00,,,0.48,WUHU216HW,2013-03-06 00:19:00,
2013-03-05 19:21:00,43.0,34.0,29.79,NW,320,5.7,15.7,70,0.00,,,0.48,WUHU216HW,2013-03-06 00:21:00,
2013-03-05 19:23:00,42.7,34.0,29.79,WNW,295,7.6,15.7,71,0.00,,,0.48,WUHU216HW,2013-03-06 00:23:00,
2013-03-05 19:24:00,42.7,34.0,29.80,WNW,293,8.5,15.7,71,0.00,,,0.48,WUHU216HW,2013-03-06 00:24:00,
2013-03-05 19:26:00,42.5,33.9,29.80,NW,315,6.9,15.7,71,0.00,,,0.48,WUHU216HW,2013-03-06 00:26:00,
2013-03-05 19:28:00,42.3,33.7,29.80,NNW,338,14.3,14.3,71,0.00,,,0.48,WUHU216HW,2013-03-06 00:28:00,
2013-03-05 19:29:00,42.3,33.3,29.80,NNW,328,9.3,14.3,70,0.00,,,0.48,WUHU216HW,2013-03-06 00:29:00,
2013-03-05 19:30:00,42.1,33.5,29.80,NNW,329,10.0,14.3,71,0.00,,,0.48,WUHU216HW,2013-03-06 00:30:00,
2013-03-05 19:31:00,42.1,33.5,29.80,NW,314,7.2,14.3,71,0.00,,,0.48,WUHU216HW,2013-03-06 00:31:00,
2013-03-05 19:33:00,42.1,33.5,29.80,NW,306,8.2,14.3,71,0.00,,,0.48,WUHU216HW,2013-03-06 00:33:00,
2013-03-05 19:34:00,41.9,33.6,29.81,NW,310,7.5,14.3,72,0.00,,,0.48,WUHU216HW,2013-03-06 00:34:00,
2013-03-05 19:35:00,41.9,33.3,29.81,NW,324,6.5,14.3,71,0.00,,,0.48,WUHU216HW,2013-03-06 00:35:00,
2013-03-05 19:37:00,41.8,33.4,29.81,West,270,6.3,14.3,72,0.00,,,0.48,WUHU216HW,2013-03-06 00:37:00,
2013-03-05 19:38:00,41.8,33.4,29.81,West,281,5.0,14.3,72,0.00,,,0.48,WUHU216HW,2013-03-06 00:38:00,
2013-03-05 19:39:00,41.6,33.0,29.81,NNW,338,6.9,13.0,71,0.00,,,0.48,WUHU216HW,2013-03-06 00:39:00,
2013-03-05 19:40:00,41.6,33.2,29.81,NNW,338,6.3,13.0,72,0.00,,,0.48,WUHU216HW,2013-03-06 00:40:00,
2013-03-05 19:43:00,41.4,33.0,29.81,NNW,338,8.7,8.7,72,0.00,,,0.48,WUHU216HW,2013-03-06 00:43:00,
2013-03-05 19:44:00,41.4,33.0,29.81,NNW,338,8.7,8.7,72,0.00,,,0.48,WUHU216HW,2013-03-06 00:44:00,
2013-03-05 19:46:00,41.4,33.0,29.82,NW,315,9.4,9.4,72,0.00,,,0.48,WUHU216HW,2013-03-06 00:46:00,
2013-03-05 19:50:00,41.2,32.6,29.82,WNW,302,5.4,13.4,71,0.00,,,0.48,WUHU216HW,2013-03-06 00:50:00,
2013-03-05 19:51:00,41.0,32.4,29.82,NW,306,7.8,13.4,71,0.00,,,0.48,WUHU216HW,2013-03-06 00:51:00,
2013-03-05 19:52:00,40.9,32.2,29.82,NW,315,11.4,13.4,71,0.00,,,0.48,WUHU216HW,2013-03-06 00:52:00,
2013-03-05 19:55:00,40.7,32.1,29.82,West,270,8.1,13.4,71,0.00,,,0.48,WUHU216HW,2013-03-06 00:55:00,
2013-03-05 19:56:00,40.5,31.9,29.83,WNW,294,7.5,13.4,71,0.00,,,0.48,WUHU216HW,2013-03-06 00:56:00,
2013-03-05 19:57:00,40.3,31.7,29.83,WNW,293,10.5,13.4,71,0.00,,,0.48,WUHU216HW,2013-03-06 00:57:00,
2013-03-05 20:00:00,40.1,31.5,29.83,WNW,294,5.7,11.9,71,0.00,,,0.48,WUHU216HW,2013-03-06 01:00:00,
2013-03-05 20:01:00,40.1,31.5,29.83,West,270,6.3,11.9,71,0.00,,,0.48,WUHU216HW,2013-03-06 01:01:00,
2013-03-05 20:02:00,40.1,31.5,29.83,West,275,5.3,11.9,71,0.00,,,0.48,WUHU216HW,2013-03-06 01:02:00,
2013-03-05 20:05:00,40.0,31.6,29.83,West,273,3.4,11.9,72,0.00,,,0.48,WUHU216HW,2013-03-06 01:05:00,
2013-03-05 20:06:00,40.0,31.6,29.84,West,278,2.9,11.9,72,0.00,,,0.48,WUHU216HW,2013-03-06 01:06:00,
2013-03-05 20:07:00,40.0,31.6,29.84,WNW,289,4.9,10.5,72,0.00,,,0.48,WUHU216HW,2013-03-06 01:07:00,
2013-03-05 20:08:00,40.0,31.6,29.84,WNW,289,4.7,10.5,72,0.00,,,0.48,WUHU216HW,2013-03-06 01:08:00,
2013-03-05 20:11:00,39.8,31.4,29.84,NW,322,5.1,9.8,72,0.00,,,0.48,WUHU216HW,2013-03-06 01:11:00,
2013-03-05 20:13:00,39.8,31.4,29.84,WNW,293,3.8,9.8,72,0.00,,,0.48,WUHU216HW,2013-03-06 01:13:00,
2013-03-05 20:14:00,39.6,31.3,29.84,NNW,338,4.9,10.1,72,0.00,,,0.48,WUHU216HW,2013-03-06 01:14:00,
2013-03-05 20:17:00,39.6,31.3,29.84,WNW,297,4.4,10.1,72,0.00,,,0.48,WUHU216HW,2013-03-06 01:17:00,
2013-03-05 20:18:00,39.4,31.2,29.84,North,0,4.3,10.1,72,0.00,,,0.48,WUHU216HW,2013-03-06 01:18:00,
2013-03-05 20:19:00,39.4,31.2,29.84,NW,314,4.3,10.1,72,0.00,,,0.48,WUHU216HW,2013-03-06 01:19:00,
2013-03-05 20:22:00,39.2,31.0,29.84,NW,315,6.0,10.1,72,0.00,,,0.48,WUHU216HW,2013-03-06 01:22:00,
2013-03-05 20:24:00,39.2,30.6,29.84,WNW,300,4.7,7.6,71,0.00,,,0.48,WUHU216HW,2013-03-06 01:24:00,
2013-03-05 20:25:00,39.2,31.0,29.84,NNW,338,6.3,7.6,72,0.00,,,0.48,WUHU216HW,2013-03-06 01:25:00,
2013-03-05 20:28:00,39.1,30.8,29.85,North,0,7.4,7.6,72,0.00,,,0.48,WUHU216HW,2013-03-06 01:28:00,
2013-03-05 20:29:00,39.1,30.8,29.84,NW,315,8.1,8.1,72,0.00,,,0.48,WUHU216HW,2013-03-06 01:29:00,
2013-03-05 20:30:00,39.1,30.8,29.84,NW,324,7.1,8.1,72,0.00,,,0.48,WUHU216HW,2013-03-06 01:30:00,
2013-03-05 20:33:00,38.9,30.6,29.84,WNW,293,6.0,8.1,72,0.00,,,0.48,WUHU216HW,2013-03-06 01:33:00,
2013-03-05 20:35:00,38.9,30.2,29.84,WNW,293,4.5,8.1,71,0.00,,,0.48,WUHU216HW,2013-03-06 01:35:00,
2013-03-05 20:36:00,38.7,30.1,29.85,West,270,7.6,8.1,71,0.00,,,0.48,WUHU216HW,2013-03-06 01:36:00,
2013-03-05 20:38:00,38.7,30.1,29.85,NW,304,5.2,8.5,71,0.00,,,0.48,WUHU216HW,2013-03-06 01:38:00,
2013-03-05 20:41:00,38.7,30.1,29.85,West,268,3.9,8.5,71,0.00,,,0.48,WUHU216HW,2013-03-06 01:41:00,
2013-03-05 20:44:00,38.5,30.0,29.85,West,274,2.6,8.5,71,0.00,,,0.48,WUHU216HW,2013-03-06 01:44:00,
2013-03-05 20:46:00,38.5,30.0,29.85,WNW,293,3.6,8.5,71,0.00,,,0.48,WUHU216HW,2013-03-06 01:46:00,
2013-03-05 20:47:00,38.5,30.0,29.85,WNW,294,3.2,6.5,71,0.00,,,0.48,WUHU216HW,2013-03-06 01:47:00,
2013-03-05 20:49:00,38.5,30.0,29.85,WNW,284,4.1,6.9,71,0.00,,,0.48,WUHU216HW,2013-03-06 01:49:00,
2013-03-05 20:51:00,38.5,30.0,29.84,WNW,285,3.6,6.9,71,0.00,,,0.48,WUHU216HW,2013-03-06 01:51:00,
2013-03-05 20:53:00,38.5,30.0,29.85,West,278,4.9,10.1,71,0.00,,,0.48,WUHU216HW,2013-03-06 01:53:00,
2013-03-05 20:54:00,38.5,30.0,29.85,NW,315,4.5,10.1,71,0.00,,,0.48,WUHU216HW,2013-03-06 01:54:00,
2013-03-05 20:57:00,38.5,30.2,29.85,WNW,293,3.2,10.1,72,0.00,,,0.48,WUHU216HW,2013-03-06 01:57:00,
2013-03-05 20:58:00,38.3,29.8,29.85,North,0,3.1,10.1,71,0.00,,,0.48,WUHU216HW,2013-03-06 01:58:00,
2013-03-05 21:00:00,38.3,30.1,29.85,WNW,290,2.1,10.1,72,0.00,,,0.48,WUHU216HW,2013-03-06 02:00:00,
2013-03-05 21:02:00,38.3,29.8,29.84,West,264,1.5,6.3,71,0.00,,,0.48,WUHU216HW,2013-03-06 02:02:00,
2013-03-05 21:03:00,38.3,29.8,29.84,WSW,256,0.9,6.3,71,0.00,,,0.48,WUHU216HW,2013-03-06 02:03:00,
2013-03-05 21:04:00,38.3,30.1,29.84,WSW,248,2.5,6.3,72,0.00,,,0.48,WUHU216HW,2013-03-06 02:04:00,
2013-03-05 21:05:00,38.3,29.8,29.84,NW,315,4.5,5.8,71,0.00,,,0.48,WUHU216HW,2013-03-06 02:05:00,
2013-03-05 21:07:00,38.3,29.8,29.84,NW,315,4.0,5.8,71,0.00,,,0.48,WUHU216HW,2013-03-06 02:07:00,
2013-03-05 21:09:00,38.3,29.4,29.84,WNW,293,3.4,5.8,70,0.00,,,0.48,WUHU216HW,2013-03-06 02:09:00,
2013-03-05 21:10:00,38.2,29.6,29.84,WNW,295,3.6,5.8,71,0.00,,,0.48,WUHU216HW,2013-03-06 02:10:00,
2013-03-05 21:12:00,38.3,29.8,29.84,NW,315,2.9,5.8,71,0.00,,,0.48,WUHU216HW,2013-03-06 02:12:00,
2013-03-05 21:14:00,38.2,29.6,29.84,West,265,2.8,5.8,71,0.00,,,0.48,WUHU216HW,2013-03-06 02:14:00,
2013-03-05 21:15:00,38.3,29.8,29.84,West,280,2.3,4.7,71,0.00,,,0.48,WUHU216HW,2013-03-06 02:15:00,
2013-03-05 21:17:00,38.2,29.6,29.84,West,270,2.5,4.7,71,0.00,,,0.48,WUHU216HW,2013-03-06 02:17:00,
2013-03-05 21:19:00,38.2,29.6,29.84,NW,321,2.0,4.7,71,0.00,,,0.48,WUHU216HW,2013-03-06 02:19:00,
2013-03-05 21:21:00,38.2,29.6,29.84,NNW,338,2.2,4.7,71,0.00,,,0.48,WUHU216HW,2013-03-06 02:21:00,
2013-03-05 21:23:00,38.2,29.3,29.84,WNW,296,3.0,5.1,70,0.00,,,0.48,WUHU216HW,2013-03-06 02:23:00,
2013-03-05 21:25:00,38.2,28.9,29.84,West,273,5.5,6.5,69,0.00,,,0.48,WUHU216HW,2013-03-06 02:25:00,
2013-03-05 21:26:00,38.2,29.3,29.84,WNW,292,4.5,6.5,70,0.00,,,0.48,WUHU216HW,2013-03-06 02:26:00,
2013-03-05 21:28:00,38.2,28.9,29.84,WNW,290,4.4,6.5,69,0.00,,,0.48,WUHU216HW,2013-03-06 02:28:00,
2013-03-05 21:30:00,38.2,28.9,29.84,NW,315,4.3,6.5,69,0.00,,,0.48,WUHU216HW,2013-03-06 02:30:00,
2013-03-05 21:31:00,38.2,28.9,29.84,NW,307,2.6,6.5,69,0.00,,,0.48,WUHU216HW,2013-03-06 02:31:00,
2013-03-05 21:33:00,38.2,28.9,29.84,NW,315,3.8,6.5,69,0.00,,,0.48,WUHU216HW,2013-03-06 02:33:00,
2013-03-05 21:36:00,38.2,28.9,29.84,NNW,348,2.8,6.3,69,0.00,,,0.48,WUHU216HW,2013-03-06 02:36:00,
2013-03-05 21:37:00,38.2,28.9,29.84,West,270,4.0,5.6,69,0.00,,,0.48,WUHU216HW,2013-03-06 02:37:00,
2013-03-05 21:39:00,38.2,28.5,29.84,West,270,3.1,4.7,68,0.00,,,0.48,WUHU216HW,2013-03-06 02:39:00,
2013-03-05 21:41:00,38.2,28.5,29.84,NW,310,3.0,4.7,68,0.00,,,0.48,WUHU216HW,2013-03-06 02:41:00,
2013-03-05 21:42:00,38.2,28.5,29.84,WNW,293,2.5,4.7,68,0.00,,,0.48,WUHU216HW,2013-03-06 02:42:00,
2013-03-05 21:43:00,38.2,28.2,29.84,NW,305,2.2,4.7,67,0.00,,,0.48,WUHU216HW,2013-03-06 02:43:00,
2013-03-05 21:44:00,38.2,28.2,29.84,NW,317,3.0,4.7,67,0.00,,,0.48,WUHU216HW,2013-03-06 02:44:00,
2013-03-05 21:46:00,38.2,28.5,29.84,NNW,338,4.0,4.7,68,0.00,,,0.48,WUHU216HW,2013-03-06 02:46:00,
2013-03-05 21:47:00,38.2,28.5,29.84,WNW,293,4.3,8.7,68,0.00,,,0.48,WUHU216HW,2013-03-06 02:47:00,
2013-03-05 21:48:00,38.2,28.2,29.84,WNW,293,5.6,9.2,67,0.00,,,0.48,WUHU216HW,2013-03-06 02:48:00,
2013-03-05 21:49:00,38.2,28.2,29.84,NW,308,4.7,9.2,67,0.00,,,0.48,WUHU216HW,2013-03-06 02:49:00,
2013-03-05 21:52:00,38.2,27.0,29.83,WNW,300,5.3,9.2,64,0.00,,,0.48,WUHU216HW,2013-03-06 02:52:00,
2013-03-05 21:53:00,38.2,27.4,29.83,NW,316,4.0,9.2,65,0.00,,,0.48,WUHU216HW,2013-03-06 02:53:00,
2013-03-05 21:55:00,38.3,27.5,29.83,NW,315,2.9,9.2,65,0.00,,,0.48,WUHU216HW,2013-03-06 02:55:00,
2013-03-05 21:57:00,38.3,27.5,29.83,North,0,4.0,9.2,65,0.00,,,0.48,WUHU216HW,2013-03-06 02:57:00,
2013-03-05 21:58:00,38.3,27.2,29.83,NW,320,3.3,9.2,64,0.00,,,0.48,WUHU216HW,2013-03-06 02:58:00,
2013-03-05 21:59:00,38.3,26.8,29.83,NNW,338,4.3,7.6,63,0.00,,,0.48,WUHU216HW,2013-03-06 02:59:00,
2013-03-05 22:00:00,38.3,26.8,29.83,West,281,4.2,7.6,63,0.00,,,0.48,WUHU216HW,2013-03-06 03:00:00,
2013-03-05 22:03:00,38.3,26.8,29.83,WNW,289,2.5,7.6,63,0.00,,,0.48,WUHU216HW,2013-03-06 03:03:00,
2013-03-05 22:04:00,38.3,26.8,29.83,WNW,290,1.4,7.6,63,0.00,,,0.48,WUHU216HW,2013-03-06 03:04:00,
2013-03-05 22:06:00,38.3,26.8,29.83,WNW,296,3.5,7.6,63,0.00,,,0.48,WUHU216HW,2013-03-06 03:06:00,
2013-03-05 22:09:00,38.3,26.8,29.83,North,0,5.4,6.9,63,0.00,,,0.48,WUHU216HW,2013-03-06 03:09:00,
2013-03-05 22:10:00,38.3,26.8,29.83,SW,225,4.9,6.9,63,0.00,,,0.48,WUHU216HW,2013-03-06 03:10:00,
2013-03-05 22:11:00,38.3,26.8,29.83,West,281,3.5,6.9,63,0.00,,,0.48,WUHU216HW,2013-03-06 03:11:00,
2013-03-05 22:15:00,38.3,26.8,29.83,NNW,338,4.5,6.9,63,0.00,,,0.48,WUHU216HW,2013-03-06 03:15:00,
2013-03-05 22:16:00,38.3,26.8,29.83,NW,310,4.3,7.4,63,0.00,,,0.48,WUHU216HW,2013-03-06 03:16:00,
2013-03-05 22:20:00,38.3,26.8,29.82,WNW,293,2.2,7.4,63,0.00,,,0.48,WUHU216HW,2013-03-06 03:20:00,
2013-03-05 22:22:00,38.2,26.7,29.82,NNW,338,4.5,7.4,63,0.00,,,0.48,WUHU216HW,2013-03-06 03:22:00,
2013-03-05 22:25:00,38.2,26.7,29.82,West,270,3.4,5.4,63,0.00,,,0.48,WUHU216HW,2013-03-06 03:25:00,
2013-03-05 22:27:00,38.2,26.7,29.82,WNW,282,2.6,4.9,63,0.00,,,0.48,WUHU216HW,2013-03-06 03:27:00,
2013-03-05 22:30:00,38.2,26.7,29.82,NW,311,2.1,4.9,63,0.00,,,0.48,WUHU216HW,2013-03-06 03:30:00,
2013-03-05 22:31:00,38.2,26.7,29.82,NW,310,2.1,4.9,63,0.00,,,0.48,WUHU216HW,2013-03-06 03:31:00,
2013-03-05 22:32:00,38.2,26.7,29.82,WNW,293,2.0,4.9,63,0.00,,,0.48,WUHU216HW,2013-03-06 03:32:00,
2013-03-05 22:35:00,38.2,26.7,29.82,WNW,302,3.6,5.4,63,0.00,,,0.48,WUHU216HW,2013-03-06 03:35:00,
2013-03-05 22:36:00,38.2,26.7,29.82,WNW,293,3.4,5.4,63,0.00,,,0.48,WUHU216HW,2013-03-06 03:36:00,
2013-03-05 22:37:00,38.2,26.7,29.82,WNW,291,3.2,5.4,63,0.00,,,0.48,WUHU216HW,2013-03-06 03:37:00,
2013-03-05 22:38:00,38.2,26.7,29.82,North,0,4.7,5.4,63,0.00,,,0.48,WUHU216HW,2013-03-06 03:38:00,
2013-03-05 22:41:00,38.2,26.7,29.81,North,0,3.4,6.9,63,0.00,,,0.48,WUHU216HW,2013-03-06 03:41:00,
2013-03-05 22:42:00,38.2,26.7,29.82,WNW,296,6.9,11.4,63,0.00,,,0.48,WUHU216HW,2013-03-06 03:42:00,
2013-03-05 22:43:00,38.2,26.7,29.82,WNW,293,7.2,11.4,63,0.00,,,0.48,WUHU216HW,2013-03-06 03:43:00,
2013-03-05 22:47:00,38.2,26.7,29.82,WSW,248,5.1,11.4,63,0.00,,,0.48,WUHU216HW,2013-03-06 03:47:00,
2013-03-05 22:48:00,38.2,26.7,29.82,WSW,248,4.7,11.4,63,0.00,,,0.48,WUHU216HW,2013-03-06 03:48:00,
2013-03-05 22:50:00,38.2,26.7,29.81,West,275,4.4,11.4,63,0.00,,,0.48,WUHU216HW,2013-03-06 03:50:00,
2013-03-05 22:52:00,38.2,26.7,29.82,WNW,303,4.5,9.2,63,0.00,,,0.48,WUHU216HW,2013-03-06 03:52:00,
2013-03-05 22:54:00,38.2,26.7,29.82,WNW,293,3.8,8.5,63,0.00,,,0.48,WUHU216HW,2013-03-06 03:54:00,
2013-03-05 22:55:00,38.2,26.7,29.82,WNW,297,2.4,7.6,63,0.00,,,0.48,WUHU216HW,2013-03-06 03:55:00,
2013-03-05 22:57:00,38.2,26.7,29.82,NW,315,3.9,7.6,63,0.00,,,0.48,WUHU216HW,2013-03-06 03:57:00,
2013-03-05 22:58:00,38.2,26.7,29.82,WNW,302,3.9,7.6,63,0.00,,,0.48,WUHU216HW,2013-03-06 03:58:00,
2013-03-05 23:00:00,38.2,27.0,29.82,NNW,338,2.5,6.7,64,0.00,,,0.48,WUHU216HW,2013-03-06 04:00:00,
2013-03-05 23:01:00,38.2,27.0,29.82,WNW,293,3.4,6.7,64,0.00,,,0.48,WUHU216HW,2013-03-06 04:01:00,
2013-03-05 23:03:00,38.0,26.8,29.82,WNW,301,4.4,7.2,64,0.00,,,0.48,WUHU216HW,2013-03-06 04:03:00,
2013-03-05 23:06:00,38.0,26.8,29.81,WNW,293,3.6,7.2,64,0.00,,,0.48,WUHU216HW,2013-03-06 04:06:00,
2013-03-05 23:08:00,38.0,26.8,29.82,WNW,293,2.5,7.2,64,0.00,,,0.48,WUHU216HW,2013-03-06 04:08:00,
2013-03-05 23:09:00,38.0,26.8,29.82,NW,315,2.2,7.2,64,0.00,,,0.48,WUHU216HW,2013-03-06 04:09:00,
2013-03-05 23:12:00,38.0,27.2,29.81,NW,308,3.3,7.2,65,0.00,,,0.48,WUHU216HW,2013-03-06 04:12:00,
2013-03-05 23:13:00,38.0,27.2,29.81,NNW,338,4.3,6.3,65,0.00,,,0.48,WUHU216HW,2013-03-06 04:13:00,
2013-03-05 23:14:00,38.0,27.2,29.81,NW,326,2.8,6.3,65,0.00,,,0.48,WUHU216HW,2013-03-06 04:14:00,
2013-03-05 23:15:00,37.8,27.1,29.81,NNW,333,3.9,6.3,65,0.00,,,0.48,WUHU216HW,2013-03-06 04:15:00,
2013-03-05 23:18:00,37.8,27.5,29.82,NW,313,4.0,6.3,66,0.00,,,0.48,WUHU216HW,2013-03-06 04:18:00,
2013-03-05 23:20:00,37.8,27.5,29.81,NW,315,4.0,6.3,66,0.00,,,0.48,WUHU216HW,2013-03-06 04:20:00,
2013-03-05 23:23:00,37.8,27.5,29.81,WNW,293,3.8,6.3,66,0.00,,,0.48,WUHU216HW,2013-03-06 04:23:00,
2013-03-05 23:24:00,37.8,27.5,29.81,WNW,289,2.9,6.3,66,0.00,,,0.48,WUHU216HW,2013-03-06 04:24:00,
2013-03-05 23:25:00,37.8,27.5,29.82,WSW,248,3.1,6.3,66,0.00,,,0.48,WUHU216HW,2013-03-06 04:25:00,
2013-03-05 23:28:00,37.6,27.3,29.81,WNW,301,2.2,6.3,66,0.00,,,0.48,WUHU216HW,2013-03-06 04:28:00,
2013-03-05 23:30:00,37.6,27.6,29.81,NW,315,4.3,6.3,67,0.00,,,0.48,WUHU216HW,2013-03-06 04:30:00,
2013-03-05 23:31:00,37.6,27.6,29.81,West,270,3.8,6.3,67,0.00,,,0.48,WUHU216HW,2013-03-06 04:31:00,
2013-03-05 23:34:00,37.4,27.5,29.81,NW,315,3.1,5.1,67,0.00,,,0.48,WUHU216HW,2013-03-06 04:34:00,
2013-03-05 23:35:00,37.4,27.9,29.81,WNW,299,3.5,5.1,68,0.00,,,0.48,WUHU216HW,2013-03-06 04:35:00,
2013-03-05 23:36:00,37.4,27.5,29.81,WNW,301,2.5,5.1,67,0.00,,,0.48,WUHU216HW,2013-03-06 04:36:00,
2013-03-05 23:37:00,37.4,27.5,29.81,NW,308,2.0,5.1,67,0.00,,,0.48,WUHU216HW,2013-03-06 04:37:00,
2013-03-05 23:39:00,37.3,27.7,29.81,NW,315,2.6,5.1,68,0.00,,,0.48,WUHU216HW,2013-03-06 04:39:00,
2013-03-05 23:40:00,37.1,27.9,29.81,NNW,338,3.8,5.1,69,0.00,,,0.48,WUHU216HW,2013-03-06 04:40:00,
2013-03-05 23:41:00,37.1,27.9,29.81,NNW,338,4.0,5.1,69,0.00,,,0.48,WUHU216HW,2013-03-06 04:41:00,
2013-03-05 23:42:00,37.1,27.9,29.81,NW,315,4.7,5.1,69,0.00,,,0.48,WUHU216HW,2013-03-06 04:42:00,
2013-03-05 23:45:00,36.9,28.1,29.81,NW,315,5.4,5.4,70,0.00,,,0.48,WUHU216HW,2013-03-06 04:45:00,
2013-03-05 23:46:00,36.9,28.5,29.82,WNW,294,3.6,5.4,71,0.00,,,0.48,WUHU216HW,2013-03-06 04:46:00,
2013-03-05 23:48:00,36.7,28.3,29.82,West,270,2.0,5.4,71,0.00,,,0.48,WUHU216HW,2013-03-06 04:48:00,
2013-03-05 23:50:00,36.5,28.1,29.81,NW,320,2.7,5.8,71,0.00,,,0.48,WUHU216HW,2013-03-06 04:50:00,
2013-03-05 23:51:00,36.4,27.9,29.81,NW,322,2.3,5.8,71,0.00,,,0.48,WUHU216HW,2013-03-06 04:51:00,
2013-03-05 23:52:00,36.4,27.9,29.81,West,270,2.5,5.8,71,0.00,,,0.48,WUHU216HW,2013-03-06 04:52:00,
2013-03-05 23:53:00,36.2,28.4,29.81,WNW,301,3.8,5.8,73,0.00,,,0.48,WUHU216HW,2013-03-06 04:53:00,
2013-03-05 23:56:00,36.0,27.8,29.81,WNW,302,2.5,5.8,72,0.00,,,0.48,WUHU216HW,2013-03-06 04:56:00,
2013-03-05 23:57:00,36.0,27.8,29.81,NW,315,2.7,5.8,72,0.00,,,0.48,WUHU216HW,2013-03-06 04:57:00,
2013-03-05 23:58:00,35.8,28.0,29.81,West,270,3.4,5.8,73,0.00,,,0.48,WUHU216HW,2013-03-06 04:58:00,